Wetterdaten: Samstag, 21.10.2023
Datum Zeit Temp. Aussen Temp. o. S. Temp +5cm Feuchte Auss Luftdruck Regen Sonnenschein Regendauer Solar Windben Empfang
21.10.2023 00:00 11,6 C 11,1 C 8,3 C 99 % 983,9 hPa 0,0 l/m 0 min 0 min 0 W/m 3,2 km/h (1 Bft) 100,00 %
21.10.2023 00:02 11,6 C 11,1 C 8,3 C 99 % 983,9 hPa 0,0 l/m 0 min 0 min 0 W/m 3,2 km/h (1 Bft) 100,00 %
21.10.2023 00:04 11,6 C 11,1 C 8,3 C 99 % 983,9 hPa 0,0 l/m 0 min 0 min 0 W/m 3,2 km/h (1 Bft) 100,00 %
21.10.2023 00:08 11,6 C 11,1 C 8,3 C 99 % 983,9 hPa 0,0 l/m 0 min 0 min 0 W/m 6,4 km/h (2 Bft) 98,00 %
21.10.2023 00:10 11,6 C 11,1 C 8,3 C 99 % 983,9 hPa 0,0 l/m 0 min 0 min 0 W/m 3,2 km/h (1 Bft) 95,74 %
21.10.2023 00:12 11,6 C 11,1 C 8,3 C 99 % 984,0 hPa 0,0 l/m 0 min 0 min 0 W/m 3,2 km/h (1 Bft) 97,87 %
21.10.2023 00:14 11,6 C 11,1 C 8,3 C 99 % 983,9 hPa 0,0 l/m 0 min 0 min 0 W/m 3,2 km/h (1 Bft) 97,37 %
21.10.2023 00:16 11,6 C 11,1 C 8,3 C 99 % 984,0 hPa 0,0 l/m 0 min 0 min 0 W/m 6,4 km/h (2 Bft) 97,87 %
21.10.2023 00:18 11,6 C 11,1 C 8,3 C 99 % 984,0 hPa 0,0 l/m 0 min 0 min 0 W/m 3,2 km/h (1 Bft) 100,00 %
21.10.2023 00:20 11,6 C 11,1 C 8,9 C 99 % 984,0 hPa 0,0 l/m 0 min 0 min 0 W/m 3,2 km/h (1 Bft) 95,65 %
21.10.2023 00:22 11,6 C 11,1 C 8,9 C 99 % 984,0 hPa 0,0 l/m 0 min 0 min 0 W/m 3,2 km/h (1 Bft) 95,74 %
21.10.2023 00:24 11,6 C 11,1 C 8,9 C 99 % 984,0 hPa 0,0 l/m 0 min 0 min 0 W/m 9,7 km/h (2 Bft) 97,87 %
21.10.2023 00:26 11,7 C 11,1 C 8,9 C 99 % 984,0 hPa 0,0 l/m 0 min 0 min 0 W/m 3,2 km/h (1 Bft) 95,74 %
21.10.2023 00:28 11,7 C 11,1 C 8,9 C 99 % 984,0 hPa 0,0 l/m 0 min 0 min 0 W/m 3,2 km/h (1 Bft) 95,74 %
21.10.2023 00:30 11,7 C 11,1 C 8,9 C 99 % 984,0 hPa 0,0 l/m 0 min 0 min 0 W/m 3,2 km/h (1 Bft) 95,74 %
21.10.2023 00:32 11,7 C 11,1 C 8,9 C 99 % 984,1 hPa 0,0 l/m 0 min 0 min 0 W/m 3,2 km/h (1 Bft) 93,62 %
21.10.2023 00:34 11,7 C 11,1 C 8,9 C 99 % 984,1 hPa 0,0 l/m 0 min 0 min 0 W/m 3,2 km/h (1 Bft) 95,65 %
21.10.2023 00:36 11,7 C 11,7 C 8,9 C 99 % 984,0 hPa 0,0 l/m 0 min 0 min 0 W/m 6,4 km/h (2 Bft) 95,74 %
21.10.2023 00:38 11,8 C 11,7 C 8,9 C 99 % 984,0 hPa 0,0 l/m 0 min 0 min 0 W/m 3,2 km/h (1 Bft) 95,74 %
21.10.2023 00:40 11,8 C 11,7 C 8,9 C 99 % 984,0 hPa 0,0 l/m 0 min 0 min 0 W/m 3,2 km/h (1 Bft) 95,74 %
21.10.2023 00:42 11,8 C 11,7 C 8,9 C 99 % 984,0 hPa 0,0 l/m 0 min 0 min 0 W/m 6,4 km/h (2 Bft) 95,74 %
21.10.2023 00:44 11,9 C 11,7 C 8,9 C 99 % 984,1 hPa 0,0 l/m 0 min 0 min 0 W/m 3,2 km/h (1 Bft) 93,62 %
21.10.2023 00:46 11,9 C 11,7 C 8,9 C 99 % 984,1 hPa 0,0 l/m 0 min 0 min 0 W/m 6,4 km/h (2 Bft) 93,62 %
21.10.2023 00:48 11,9 C 11,7 C 8,9 C 99 % 984,1 hPa 0,0 l/m 0 min 0 min 0 W/m 6,4 km/h (2 Bft) 93,48 %
21.10.2023 00:50 11,9 C 11,7 C 8,9 C 99 % 984,1 hPa 0,0 l/m 0 min 0 min 0 W/m 6,4 km/h (2 Bft) 97,87 %
21.10.2023 00:52 11,9 C 11,7 C 8,9 C 99 % 984,1 hPa 0,0 l/m 0 min 0 min 0 W/m 9,7 km/h (2 Bft) 97,87 %
21.10.2023 00:54 11,9 C 11,7 C 8,9 C 99 % 984,2 hPa 0,0 l/m 0 min 0 min 0 W/m 6,4 km/h (2 Bft) 97,87 %
21.10.2023 00:56 11,9 C 11,7 C 8,9 C 99 % 984,2 hPa 0,0 l/m 0 min 0 min 0 W/m 6,4 km/h (2 Bft) 97,87 %
21.10.2023 00:58 11,9 C 11,7 C 8,9 C 99 % 984,2 hPa 0,0 l/m 0 min 0 min 0 W/m 6,4 km/h (2 Bft) 97,87 %
21.10.2023 01:00 12,0 C 11,7 C 8,9 C 99 % 984,2 hPa 0,0 l/m 0 min 0 min 0 W/m 6,4 km/h (2 Bft) 97,87 %
21.10.2023 01:02 12,0 C 11,7 C 8,9 C 99 % 984,2 hPa 0,0 l/m 0 min 0 min 0 W/m 6,4 km/h (2 Bft) 97,83 %
21.10.2023 01:04 12,0 C 11,7 C 8,9 C 99 % 984,3 hPa 0,0 l/m 0 min 0 min 0 W/m 3,2 km/h (1 Bft) 97,87 %
21.10.2023 01:06 12,0 C 11,7 C 8,9 C 99 % 984,3 hPa 0,0 l/m 0 min 0 min 0 W/m 12,9 km/h (3 Bft) 96,61 %
21.10.2023 01:08 12,0 C 11,7 C 8,9 C 99 % 984,4 hPa 0,0 l/m 0 min 0 min 0 W/m 3,2 km/h (1 Bft) 100,00 %
21.10.2023 01:10 12,0 C 11,7 C 8,9 C 99 % 984,4 hPa 0,0 l/m 0 min 0 min 0 W/m 16,1 km/h (3 Bft) 97,87 %
21.10.2023 01:12 12,0 C 11,7 C 8,9 C 99 % 984,4 hPa 0,0 l/m 0 min 0 min 0 W/m 6,4 km/h (2 Bft) 97,87 %
21.10.2023 01:14 12,0 C 11,7 C 8,9 C 99 % 984,4 hPa 0,0 l/m 0 min 0 min 0 W/m 6,4 km/h (2 Bft) 97,87 %
21.10.2023 01:16 12,0 C 11,7 C 8,9 C 99 % 984,4 hPa 0,0 l/m 0 min 0 min 0 W/m 3,2 km/h (1 Bft) 100,00 %
21.10.2023 01:18 12,0 C 11,7 C 8,9 C 99 % 984,4 hPa 0,0 l/m 0 min 0 min 0 W/m 6,4 km/h (2 Bft) 100,00 %
21.10.2023 01:20 12,1 C 11,7 C 8,9 C 99 % 984,4 hPa 0,0 l/m 0 min 0 min 0 W/m 6,4 km/h (2 Bft) 97,87 %
21.10.2023 01:22 12,0 C 11,7 C 8,9 C 99 % 984,5 hPa 0,0 l/m 0 min 0 min 0 W/m 6,4 km/h (2 Bft) 100,00 %
21.10.2023 01:24 12,0 C 11,7 C 8,9 C 99 % 984,4 hPa 0,0 l/m 0 min 0 min 0 W/m 9,7 km/h (2 Bft) 100,00 %
21.10.2023 01:26 12,0 C 11,7 C 8,9 C 99 % 984,4 hPa 0,0 l/m 0 min 0 min 0 W/m 3,2 km/h (1 Bft) 100,00 %
21.10.2023 01:28 12,0 C 11,7 C 8,9 C 99 % 984,4 hPa 0,0 l/m 0 min 0 min 0 W/m 3,2 km/h (1 Bft) 100,00 %
21.10.2023 01:30 12,0 C 11,7 C 8,9 C 99 % 984,4 hPa 0,0 l/m 0 min 0 min 0 W/m 3,2 km/h (1 Bft) 100,00 %
21.10.2023 01:32 12,0 C 11,7 C 8,9 C 99 % 984,5 hPa 0,0 l/m 0 min 0 min 0 W/m 3,2 km/h (1 Bft) 97,87 %
21.10.2023 01:34 12,0 C 11,7 C 8,9 C 99 % 984,4 hPa 0,0 l/m 0 min 0 min 0 W/m 3,2 km/h (1 Bft) 100,00 %
21.10.2023 01:36 12,0 C 11,7 C 8,9 C 99 % 984,5 hPa 0,0 l/m 0 min 0 min 0 W/m 12,9 km/h (3 Bft) 100,00 %
21.10.2023 01:38 12,0 C 11,7 C 8,9 C 99 % 984,5 hPa 0,0 l/m 0 min 0 min 0 W/m 3,2 km/h (1 Bft) 100,00 %
21.10.2023 01:40 12,0 C 11,7 C 8,9 C 99 % 984,5 hPa 0,0 l/m 0 min 0 min 0 W/m 6,4 km/h (2 Bft) 100,00 %
21.10.2023 01:42 12,0 C 11,7 C 8,9 C 99 % 984,6 hPa 0,0 l/m 0 min 0 min 0 W/m 6,4 km/h (2 Bft) 100,00 %
21.10.2023 01:50 12,0 C 11,7 C 8,9 C 99 % 984,6 hPa 0,0 l/m 0 min 0 min 0 W/m 3,2 km/h (1 Bft) 100,00 %
21.10.2023 01:52 11,9 C 11,1 C 8,9 C 99 % 984,7 hPa 0,0 l/m 0 min 0 min 0 W/m 3,2 km/h (1 Bft) 97,87 %
21.10.2023 01:54 11,9 C 11,1 C 8,9 C 99 % 984,7 hPa 0,0 l/m 0 min 0 min 0 W/m 3,2 km/h (1 Bft) 100,00 %
21.10.2023 01:56 11,9 C 11,1 C 8,9 C 99 % 984,7 hPa 0,0 l/m 0 min 0 min 0 W/m 3,2 km/h (1 Bft) 100,00 %
21.10.2023 01:58 11,9 C 11,1 C 8,9 C 99 % 984,7 hPa 0,0 l/m 0 min 0 min 0 W/m 3,2 km/h (1 Bft) 97,87 %
21.10.2023 02:00 11,9 C 11,1 C 8,9 C 99 % 984,6 hPa 0,0 l/m 0 min 0 min 0 W/m 3,2 km/h (1 Bft) 100,00 %
21.10.2023 02:02 11,9 C 11,1 C 8,9 C 99 % 984,7 hPa 0,0 l/m 0 min 0 min 0 W/m 3,2 km/h (1 Bft) 100,00 %
21.10.2023 02:04 11,9 C 11,1 C 8,9 C 99 % 984,7 hPa 0,0 l/m 0 min 0 min 0 W/m 12,9 km/h (3 Bft) 98,00 %
21.10.2023 02:06 11,9 C 11,1 C 8,9 C 99 % 984,7 hPa 0,0 l/m 0 min 0 min 0 W/m 3,2 km/h (1 Bft) 100,00 %
21.10.2023 02:08 11,9 C 11,7 C 8,9 C 99 % 984,8 hPa 0,0 l/m 0 min 0 min 0 W/m 6,4 km/h (2 Bft) 97,87 %
21.10.2023 02:10 11,9 C 11,7 C 8,9 C 99 % 984,8 hPa 0,0 l/m 0 min 0 min 0 W/m 6,4 km/h (2 Bft) 93,62 %
21.10.2023 02:14 11,9 C 11,7 C 8,9 C 99 % 984,9 hPa 0,0 l/m 0 min 0 min 0 W/m 3,2 km/h (1 Bft) 94,55 %
21.10.2023 02:16 11,9 C 11,7 C 8,9 C 99 % 984,9 hPa 0,0 l/m 0 min 0 min 0 W/m 3,2 km/h (1 Bft) 95,74 %
21.10.2023 02:18 11,9 C 11,7 C 8,9 C 99 % 984,9 hPa 0,0 l/m 0 min 0 min 0 W/m 3,2 km/h (1 Bft) 95,24 %
21.10.2023 02:20 11,9 C 11,7 C 8,9 C 99 % 984,9 hPa 0,0 l/m 0 min 0 min 0 W/m 6,4 km/h (2 Bft) 95,83 %
21.10.2023 02:22 11,9 C 11,7 C 8,9 C 99 % 985,0 hPa 0,0 l/m 0 min 0 min 0 W/m 3,2 km/h (1 Bft) 96,00 %
21.10.2023 02:24 12,0 C 11,7 C 8,9 C 99 % 985,0 hPa 0,0 l/m 0 min 0 min 0 W/m 6,4 km/h (2 Bft) 95,74 %
21.10.2023 02:26 12,0 C 11,7 C 8,9 C 99 % 985,0 hPa 0,0 l/m 0 min 0 min 0 W/m 3,2 km/h (1 Bft) 97,87 %
21.10.2023 02:28 12,0 C 11,7 C 8,9 C 99 % 985,0 hPa 0,0 l/m 0 min 0 min 0 W/m 3,2 km/h (1 Bft) 93,02 %
21.10.2023 02:30 12,1 C 11,7 C 8,9 C 99 % 985,0 hPa 0,0 l/m 0 min 0 min 0 W/m 12,9 km/h (3 Bft) 94,00 %
21.10.2023 02:32 12,1 C 11,7 C 8,9 C 99 % 985,1 hPa 0,0 l/m 0 min 0 min 0 W/m 3,2 km/h (1 Bft) 92,00 %
21.10.2023 02:34 12,1 C 11,7 C 8,9 C 99 % 985,1 hPa 0,0 l/m 0 min 0 min 0 W/m 3,2 km/h (1 Bft) 95,74 %
21.10.2023 02:36 12,1 C 11,7 C 8,9 C 99 % 985,1 hPa 0,0 l/m 0 min 0 min 0 W/m 6,4 km/h (2 Bft) 97,14 %
21.10.2023 02:38 12,2 C 11,7 C 8,9 C 99 % 985,1 hPa 0,0 l/m 0 min 0 min 0 W/m 6,4 km/h (2 Bft) 93,62 %
21.10.2023 02:40 12,2 C 11,7 C 8,9 C 99 % 985,1 hPa 0,0 l/m 0 min 0 min 0 W/m 6,4 km/h (2 Bft) 96,30 %
21.10.2023 02:42 12,2 C 11,7 C 8,9 C 99 % 985,1 hPa 0,0 l/m 0 min 0 min 0 W/m 3,2 km/h (1 Bft) 98,00 %
21.10.2023 02:44 12,2 C 11,7 C 8,9 C 99 % 985,2 hPa 0,0 l/m 0 min 0 min 0 W/m 6,4 km/h (2 Bft) 95,92 %
21.10.2023 02:46 12,2 C 11,7 C 8,9 C 99 % 985,2 hPa 0,0 l/m 0 min 0 min 0 W/m 6,4 km/h (2 Bft) 100,00 %
21.10.2023 02:48 12,2 C 11,7 C 8,9 C 99 % 985,2 hPa 0,0 l/m 0 min 0 min 0 W/m 6,4 km/h (2 Bft) 95,74 %
21.10.2023 02:50 12,2 C 11,7 C 8,9 C 99 % 985,2 hPa 0,0 l/m 0 min 0 min 0 W/m 6,4 km/h (2 Bft) 96,30 %
21.10.2023 02:52 12,3 C 11,7 C 8,9 C 99 % 985,3 hPa 0,0 l/m 0 min 0 min 0 W/m 3,2 km/h (1 Bft) 98,00 %
21.10.2023 02:54 12,3 C 11,7 C 8,9 C 99 % 985,3 hPa 0,0 l/m 0 min 0 min 0 W/m 6,4 km/h (2 Bft) 95,74 %
21.10.2023 02:56 12,3 C 11,7 C 8,9 C 99 % 985,3 hPa 0,0 l/m 0 min 0 min 0 W/m 6,4 km/h (2 Bft) 95,74 %
21.10.2023 02:58 12,3 C 11,7 C 8,9 C 99 % 985,3 hPa 0,0 l/m 0 min 0 min 0 W/m 3,2 km/h (1 Bft) 97,87 %
21.10.2023 03:00 12,3 C 11,7 C 8,9 C 99 % 985,3 hPa 0,0 l/m 0 min 0 min 0 W/m 0,0 km/h (0 Bft) 97,87 %
21.10.2023 03:02 12,3 C 11,7 C 8,9 C 99 % 985,4 hPa 0,0 l/m 0 min 2 min 0 W/m 0,0 km/h (0 Bft) 93,75 %
21.10.2023 03:04 12,3 C 11,7 C 8,9 C 99 % 985,4 hPa 0,0 l/m 0 min 0 min 0 W/m 0,0 km/h (0 Bft) 97,92 %
21.10.2023 03:06 12,3 C 11,7 C 8,9 C 99 % 985,5 hPa 0,0 l/m 0 min 2 min 0 W/m 3,2 km/h (1 Bft) 100,00 %
21.10.2023 03:08 12,3 C 11,7 C 8,9 C 99 % 985,4 hPa 0,0 l/m 0 min 2 min 0 W/m 6,4 km/h (2 Bft) 97,87 %
21.10.2023 03:10 12,3 C 11,7 C 8,9 C 99 % 985,5 hPa 0,0 l/m 0 min 2 min 0 W/m 6,4 km/h (2 Bft) 97,87 %
21.10.2023 03:12 12,3 C 11,7 C 8,9 C 99 % 985,5 hPa 0,0 l/m 0 min 0 min 0 W/m 3,2 km/h (1 Bft) 95,74 %
21.10.2023 03:14 12,3 C 11,7 C 8,9 C 99 % 985,5 hPa 0,0 l/m 0 min 0 min 0 W/m 3,2 km/h (1 Bft) 91,30 %
21.10.2023 03:16 12,3 C 11,7 C 8,9 C 99 % 985,5 hPa 0,0 l/m 0 min 2 min 0 W/m 3,2 km/h (1 Bft) 97,87 %
21.10.2023 03:18 12,3 C 11,7 C 9,4 C 99 % 985,6 hPa 0,0 l/m 0 min 0 min 0 W/m 3,2 km/h (1 Bft) 97,87 %
21.10.2023 03:20 12,3 C 11,7 C 9,4 C 99 % 985,5 hPa 0,0 l/m 0 min 0 min 0 W/m 3,2 km/h (1 Bft) 97,87 %
21.10.2023 03:22 12,3 C 11,7 C 9,4 C 99 % 985,6 hPa 0,2 l/m 0 min 0 min 0 W/m 6,4 km/h (2 Bft) 95,74 %
21.10.2023 03:24 12,3 C 11,7 C 9,4 C 99 % 985,6 hPa 0,0 l/m 0 min 0 min 0 W/m 12,9 km/h (3 Bft) 95,74 %
21.10.2023 03:26 12,3 C 11,7 C 9,4 C 99 % 985,6 hPa 0,0 l/m 0 min 2 min 0 W/m 9,7 km/h (2 Bft) 97,87 %
21.10.2023 03:28 12,3 C 11,7 C 9,4 C 99 % 985,7 hPa 0,0 l/m 0 min 2 min 0 W/m 6,4 km/h (2 Bft) 97,83 %
21.10.2023 03:30 12,3 C 11,7 C 9,4 C 99 % 985,7 hPa 0,0 l/m 0 min 0 min 0 W/m 12,9 km/h (3 Bft) 95,74 %
21.10.2023 03:32 12,3 C 11,7 C 9,4 C 99 % 985,7 hPa 0,0 l/m 0 min 0 min 0 W/m 6,4 km/h (2 Bft) 95,74 %
21.10.2023 03:34 12,3 C 12,2 C 9,4 C 99 % 985,7 hPa 0,0 l/m 0 min 2 min 0 W/m 6,4 km/h (2 Bft) 97,87 %
21.10.2023 03:36 12,4 C 12,2 C 9,4 C 99 % 985,8 hPa 0,0 l/m 0 min 2 min 0 W/m 6,4 km/h (2 Bft) 97,87 %
21.10.2023 03:38 12,4 C 12,2 C 9,4 C 99 % 985,8 hPa 0,0 l/m 0 min 2 min 0 W/m 3,2 km/h (1 Bft) 97,87 %
21.10.2023 03:40 12,4 C 12,2 C 9,4 C 99 % 985,9 hPa 0,0 l/m 0 min 2 min 0 W/m 6,4 km/h (2 Bft) 97,87 %
21.10.2023 03:42 12,4 C 12,2 C 9,4 C 99 % 985,9 hPa 0,0 l/m 0 min 2 min 0 W/m 3,2 km/h (1 Bft) 97,83 %
21.10.2023 03:44 12,4 C 11,7 C 9,4 C 99 % 985,9 hPa 0,0 l/m 0 min 2 min 0 W/m 3,2 km/h (1 Bft) 97,87 %
21.10.2023 03:46 12,4 C 11,7 C 9,4 C 99 % 985,9 hPa 0,0 l/m 0 min 2 min 0 W/m 6,4 km/h (2 Bft) 97,87 %
21.10.2023 03:48 12,4 C 11,7 C 9,4 C 99 % 985,9 hPa 0,0 l/m 0 min 2 min 0 W/m 3,2 km/h (1 Bft) 95,74 %
21.10.2023 03:50 12,4 C 11,7 C 9,4 C 99 % 985,9 hPa 0,2 l/m 0 min 2 min 0 W/m 3,2 km/h (1 Bft) 97,87 %
21.10.2023 03:52 12,4 C 11,7 C 9,4 C 99 % 985,9 hPa 0,0 l/m 0 min 2 min 0 W/m 6,4 km/h (2 Bft) 97,87 %
21.10.2023 03:54 12,4 C 11,7 C 9,4 C 99 % 986,0 hPa 0,0 l/m 0 min 2 min 0 W/m 6,4 km/h (2 Bft) 100,00 %
21.10.2023 03:56 12,4 C 11,7 C 9,4 C 99 % 986,0 hPa 0,0 l/m 0 min 2 min 0 W/m 3,2 km/h (1 Bft) 97,83 %
21.10.2023 03:58 12,4 C 11,7 C 9,4 C 99 % 986,1 hPa 0,0 l/m 0 min 2 min 0 W/m 6,4 km/h (2 Bft) 100,00 %
21.10.2023 04:00 12,4 C 11,7 C 9,4 C 99 % 986,1 hPa 0,2 l/m 0 min 2 min 0 W/m 6,4 km/h (2 Bft) 97,87 %
21.10.2023 04:02 12,4 C 11,7 C 9,4 C 99 % 986,0 hPa 0,0 l/m 0 min 2 min 0 W/m 6,4 km/h (2 Bft) 97,87 %
21.10.2023 04:04 12,4 C 11,7 C 9,4 C 99 % 986,1 hPa 0,0 l/m 0 min 2 min 0 W/m 6,4 km/h (2 Bft) 97,56 %
21.10.2023 04:06 12,4 C 11,7 C 9,4 C 99 % 986,2 hPa 0,2 l/m 0 min 2 min 0 W/m 3,2 km/h (1 Bft) 97,87 %
21.10.2023 04:08 12,4 C 11,7 C 9,4 C 99 % 986,2 hPa 0,0 l/m 0 min 2 min 0 W/m 6,4 km/h (2 Bft) 95,74 %
21.10.2023 04:10 12,4 C 11,7 C 9,4 C 99 % 986,3 hPa 0,0 l/m 0 min 2 min 0 W/m 6,4 km/h (2 Bft) 97,87 %
21.10.2023 04:12 12,4 C 11,7 C 9,4 C 99 % 986,3 hPa 0,0 l/m 0 min 2 min 0 W/m 6,4 km/h (2 Bft) 97,87 %
21.10.2023 04:14 12,4 C 11,7 C 9,4 C 99 % 986,3 hPa 0,0 l/m 0 min 2 min 0 W/m 6,4 km/h (2 Bft) 97,87 %
21.10.2023 04:16 12,4 C 11,7 C 9,4 C 99 % 986,3 hPa 0,2 l/m 0 min 2 min 0 W/m 6,4 km/h (2 Bft) 97,87 %
21.10.2023 04:18 12,5 C 11,7 C 9,4 C 99 % 986,4 hPa 0,0 l/m 0 min 2 min 0 W/m 6,4 km/h (2 Bft) 97,83 %
21.10.2023 04:20 12,4 C 11,7 C 9,4 C 99 % 986,4 hPa 0,2 l/m 0 min 2 min 0 W/m 3,2 km/h (1 Bft) 95,74 %
21.10.2023 04:22 12,4 C 11,7 C 9,4 C 99 % 986,4 hPa 0,0 l/m 0 min 2 min 0 W/m 6,4 km/h (2 Bft) 97,87 %
21.10.2023 04:24 12,4 C 11,7 C 9,4 C 99 % 986,4 hPa 0,0 l/m 0 min 2 min 0 W/m 12,9 km/h (3 Bft) 95,74 %
21.10.2023 04:26 12,5 C 11,7 C 9,4 C 99 % 986,5 hPa 0,0 l/m 0 min 2 min 0 W/m 3,2 km/h (1 Bft) 97,87 %
21.10.2023 04:28 12,4 C 11,7 C 9,4 C 99 % 986,5 hPa 0,0 l/m 0 min 0 min 0 W/m 3,2 km/h (1 Bft) 97,87 %
21.10.2023 04:30 12,4 C 11,7 C 9,4 C 99 % 986,5 hPa 0,0 l/m 0 min 2 min 0 W/m 3,2 km/h (1 Bft) 97,87 %
21.10.2023 04:32 12,4 C 11,7 C 9,4 C 99 % 986,5 hPa 0,0 l/m 0 min 2 min 0 W/m 3,2 km/h (1 Bft) 100,00 %
21.10.2023 04:34 12,5 C 11,7 C 9,4 C 99 % 986,5 hPa 0,0 l/m 0 min 0 min 0 W/m 3,2 km/h (1 Bft) 100,00 %
21.10.2023 04:36 12,5 C 11,7 C 9,4 C 99 % 986,6 hPa 0,0 l/m 0 min 0 min 0 W/m 6,4 km/h (2 Bft) 100,00 %
21.10.2023 04:38 12,4 C 11,7 C 9,4 C 99 % 986,6 hPa 0,0 l/m 0 min 2 min 0 W/m 3,2 km/h (1 Bft) 100,00 %
21.10.2023 04:40 12,4 C 11,7 C 9,4 C 99 % 986,6 hPa 0,0 l/m 0 min 0 min 0 W/m 3,2 km/h (1 Bft) 100,00 %
21.10.2023 04:42 12,4 C 11,7 C 9,4 C 99 % 986,7 hPa 0,0 l/m 0 min 0 min 0 W/m 3,2 km/h (1 Bft) 100,00 %
21.10.2023 04:44 12,4 C 11,7 C 9,4 C 99 % 986,6 hPa 0,0 l/m 0 min 2 min 0 W/m 3,2 km/h (1 Bft) 97,87 %
21.10.2023 04:46 12,4 C 11,7 C 9,4 C 99 % 986,7 hPa 0,0 l/m 0 min 2 min 0 W/m 6,4 km/h (2 Bft) 100,00 %
21.10.2023 04:48 12,4 C 11,7 C 9,4 C 99 % 986,7 hPa 0,0 l/m 0 min 2 min 0 W/m 3,2 km/h (1 Bft) 100,00 %
21.10.2023 04:50 12,4 C 11,7 C 9,4 C 99 % 986,8 hPa 0,2 l/m 0 min 2 min 0 W/m 3,2 km/h (1 Bft) 100,00 %
21.10.2023 04:52 12,4 C 11,7 C 9,4 C 99 % 986,8 hPa 0,0 l/m 0 min 2 min 0 W/m 6,4 km/h (2 Bft) 100,00 %
21.10.2023 04:54 12,4 C 11,7 C 9,4 C 99 % 986,9 hPa 0,0 l/m 0 min 2 min 0 W/m 0,0 km/h (0 Bft) 100,00 %
21.10.2023 04:56 12,4 C 11,7 C 9,4 C 99 % 986,9 hPa 0,2 l/m 0 min 2 min 0 W/m 3,2 km/h (1 Bft) 97,87 %
21.10.2023 04:58 12,4 C 11,7 C 9,4 C 99 % 986,9 hPa 0,0 l/m 0 min 2 min 0 W/m 3,2 km/h (1 Bft) 97,87 %
21.10.2023 05:00 12,4 C 11,7 C 9,4 C 99 % 986,9 hPa 0,0 l/m 0 min 2 min 0 W/m 6,4 km/h (2 Bft) 100,00 %
21.10.2023 05:02 12,5 C 11,7 C 9,4 C 99 % 987,0 hPa 0,0 l/m 0 min 2 min 0 W/m 3,2 km/h (1 Bft) 95,74 %
21.10.2023 05:04 12,5 C 11,7 C 9,4 C 99 % 986,9 hPa 0,2 l/m 0 min 2 min 0 W/m 3,2 km/h (1 Bft) 97,92 %
21.10.2023 05:06 12,5 C 11,7 C 9,4 C 99 % 987,0 hPa 0,0 l/m 0 min 2 min 0 W/m 6,4 km/h (2 Bft) 100,00 %
21.10.2023 05:08 12,5 C 11,7 C 9,4 C 99 % 986,9 hPa 0,0 l/m 0 min 2 min 0 W/m 6,4 km/h (2 Bft) 100,00 %
21.10.2023 05:10 12,5 C 11,7 C 9,4 C 99 % 987,0 hPa 0,0 l/m 0 min 2 min 0 W/m 3,2 km/h (1 Bft) 100,00 %
21.10.2023 05:12 12,5 C 11,7 C 9,4 C 99 % 987,1 hPa 0,0 l/m 0 min 2 min 0 W/m 3,2 km/h (1 Bft) 98,31 %
21.10.2023 05:14 12,5 C 11,7 C 9,4 C 99 % 987,1 hPa 0,0 l/m 0 min 0 min 0 W/m 3,2 km/h (1 Bft) 97,14 %
21.10.2023 05:16 12,5 C 11,7 C 9,4 C 99 % 987,1 hPa 0,0 l/m 0 min 2 min 0 W/m 3,2 km/h (1 Bft) 97,87 %
21.10.2023 05:18 12,5 C 11,7 C 9,4 C 99 % 987,1 hPa 0,0 l/m 0 min 2 min 0 W/m 3,2 km/h (1 Bft) 97,83 %
21.10.2023 05:20 12,5 C 11,7 C 9,4 C 99 % 987,2 hPa 0,0 l/m 0 min 0 min 0 W/m 3,2 km/h (1 Bft) 97,87 %
21.10.2023 05:22 12,5 C 11,7 C 9,4 C 99 % 987,2 hPa 0,0 l/m 0 min 0 min 0 W/m 3,2 km/h (1 Bft) 97,87 %
21.10.2023 05:24 12,5 C 11,7 C 9,4 C 99 % 987,3 hPa 0,0 l/m 0 min 0 min 0 W/m 3,2 km/h (1 Bft) 95,74 %
21.10.2023 05:26 12,5 C 11,7 C 9,4 C 99 % 987,2 hPa 0,2 l/m 0 min 2 min 0 W/m 3,2 km/h (1 Bft) 97,87 %
21.10.2023 05:28 12,5 C 11,7 C 9,4 C 99 % 987,3 hPa 0,0 l/m 0 min 2 min 0 W/m 3,2 km/h (1 Bft) 97,87 %
21.10.2023 05:30 12,5 C 11,7 C 9,4 C 99 % 987,3 hPa 0,0 l/m 0 min 2 min 0 W/m 3,2 km/h (1 Bft) 95,74 %
21.10.2023 05:32 12,5 C 11,7 C 9,4 C 99 % 987,4 hPa 0,0 l/m 0 min 2 min 0 W/m 3,2 km/h (1 Bft) 95,65 %
21.10.2023 05:34 12,6 C 11,7 C 9,4 C 99 % 987,4 hPa 0,0 l/m 0 min 2 min 0 W/m 3,2 km/h (1 Bft) 97,87 %
21.10.2023 05:36 12,5 C 11,7 C 9,4 C 99 % 987,4 hPa 0,0 l/m 0 min 2 min 0 W/m 3,2 km/h (1 Bft) 97,87 %
21.10.2023 05:38 12,6 C 11,7 C 9,4 C 99 % 987,5 hPa 0,0 l/m 0 min 2 min 0 W/m 6,4 km/h (2 Bft) 97,87 %
21.10.2023 05:40 12,6 C 11,7 C 9,4 C 99 % 987,5 hPa 0,0 l/m 0 min 2 min 0 W/m 3,2 km/h (1 Bft) 95,74 %
21.10.2023 05:42 12,6 C 11,7 C 9,4 C 99 % 987,6 hPa 0,0 l/m 0 min 2 min 0 W/m 6,4 km/h (2 Bft) 91,49 %
21.10.2023 05:44 12,6 C 11,7 C 9,4 C 99 % 987,6 hPa 0,0 l/m 0 min 2 min 0 W/m 6,4 km/h (2 Bft) 97,87 %
21.10.2023 05:46 12,6 C 11,7 C 9,4 C 99 % 987,7 hPa 0,0 l/m 0 min 2 min 0 W/m 6,4 km/h (2 Bft) 95,65 %
21.10.2023 05:48 12,6 C 11,7 C 9,4 C 99 % 987,7 hPa 0,0 l/m 0 min 2 min 0 W/m 6,4 km/h (2 Bft) 95,74 %
21.10.2023 05:50 12,6 C 12,2 C 9,4 C 99 % 987,8 hPa 0,0 l/m 0 min 2 min 0 W/m 3,2 km/h (1 Bft) 91,49 %
21.10.2023 05:52 12,6 C 12,2 C 9,4 C 99 % 987,8 hPa 0,0 l/m 0 min 2 min 0 W/m 9,7 km/h (2 Bft) 95,74 %
21.10.2023 05:54 12,7 C 12,2 C 9,4 C 99 % 987,8 hPa 0,2 l/m 0 min 2 min 0 W/m 3,2 km/h (1 Bft) 94,34 %
21.10.2023 05:56 12,7 C 12,2 C 9,4 C 99 % 987,9 hPa 0,0 l/m 0 min 0 min 0 W/m 3,2 km/h (1 Bft) 91,49 %
21.10.2023 05:58 12,7 C 12,2 C 9,4 C 99 % 987,9 hPa 0,0 l/m 0 min 0 min 0 W/m 16,1 km/h (3 Bft) 93,62 %
21.10.2023 06:00 12,7 C 12,2 C 9,4 C 99 % 987,9 hPa 0,0 l/m 0 min 0 min 0 W/m 12,9 km/h (3 Bft) 96,00 %
21.10.2023 06:02 12,7 C 12,2 C 9,4 C 99 % 988,0 hPa 0,0 l/m 0 min 2 min 0 W/m 6,4 km/h (2 Bft) 93,62 %
21.10.2023 06:04 12,7 C 12,2 C 9,4 C 99 % 988,0 hPa 0,0 l/m 0 min 2 min 0 W/m 9,7 km/h (2 Bft) 90,24 %
21.10.2023 06:10 12,8 C 12,2 C 10,0 C 99 % 988,0 hPa 0,0 l/m 0 min 0 min 0 W/m 6,4 km/h (2 Bft) 94,23 %
21.10.2023 06:12 12,8 C 12,2 C 10,0 C 99 % 988,0 hPa 0,0 l/m 0 min 0 min 0 W/m 3,2 km/h (1 Bft) 95,74 %
21.10.2023 06:14 12,8 C 12,2 C 10,0 C 99 % 988,2 hPa 0,0 l/m 0 min 0 min 0 W/m 3,2 km/h (1 Bft) 93,62 %
21.10.2023 06:16 12,8 C 12,2 C 10,0 C 99 % 988,2 hPa 0,0 l/m 0 min 0 min 0 W/m 3,2 km/h (1 Bft) 93,62 %
21.10.2023 06:18 12,8 C 12,2 C 10,0 C 99 % 988,2 hPa 0,0 l/m 0 min 0 min 0 W/m 3,2 km/h (1 Bft) 95,74 %
21.10.2023 06:20 12,8 C 12,2 C 10,0 C 99 % 988,2 hPa 0,0 l/m 0 min 0 min 0 W/m 12,9 km/h (3 Bft) 95,65 %
21.10.2023 06:22 12,8 C 12,2 C 10,0 C 99 % 988,3 hPa 0,0 l/m 0 min 0 min 0 W/m 12,9 km/h (3 Bft) 93,62 %
21.10.2023 06:24 12,8 C 12,2 C 10,0 C 99 % 988,2 hPa 0,0 l/m 0 min 0 min 0 W/m 9,7 km/h (2 Bft) 95,74 %
21.10.2023 06:26 12,8 C 12,2 C 10,0 C 99 % 988,3 hPa 0,0 l/m 0 min 0 min 0 W/m 9,7 km/h (2 Bft) 93,62 %
21.10.2023 06:28 12,8 C 12,2 C 10,0 C 99 % 988,4 hPa 0,0 l/m 0 min 0 min 0 W/m 12,9 km/h (3 Bft) 95,74 %
21.10.2023 06:30 12,8 C 12,2 C 10,0 C 99 % 988,4 hPa 0,0 l/m 0 min 0 min 0 W/m 9,7 km/h (2 Bft) 97,87 %
21.10.2023 06:32 12,9 C 12,2 C 10,0 C 99 % 988,4 hPa 0,0 l/m 0 min 0 min 0 W/m 6,4 km/h (2 Bft) 97,87 %
21.10.2023 06:34 12,9 C 12,2 C 10,0 C 99 % 988,4 hPa 0,0 l/m 0 min 0 min 0 W/m 12,9 km/h (3 Bft) 91,30 %
21.10.2023 06:36 12,9 C 12,2 C 10,0 C 99 % 988,5 hPa 0,0 l/m 0 min 0 min 0 W/m 12,9 km/h (3 Bft) 100,00 %
21.10.2023 06:38 12,9 C 12,2 C 10,0 C 99 % 988,6 hPa 0,0 l/m 0 min 0 min 0 W/m 9,7 km/h (2 Bft) 97,87 %
21.10.2023 06:40 12,9 C 12,2 C 10,0 C 99 % 988,5 hPa 0,0 l/m 0 min 0 min 0 W/m 6,4 km/h (2 Bft) 97,87 %
21.10.2023 06:42 12,9 C 12,2 C 10,0 C 99 % 988,6 hPa 0,0 l/m 0 min 0 min 0 W/m 12,9 km/h (3 Bft) 100,00 %
21.10.2023 06:44 12,9 C 12,2 C 10,0 C 99 % 988,6 hPa 0,0 l/m 0 min 0 min 0 W/m 6,4 km/h (2 Bft) 100,00 %
21.10.2023 06:46 12,9 C 12,2 C 10,0 C 99 % 988,6 hPa 0,0 l/m 0 min 0 min 0 W/m 9,7 km/h (2 Bft) 97,83 %
21.10.2023 06:48 12,9 C 12,2 C 10,0 C 99 % 988,7 hPa 0,0 l/m 0 min 0 min 0 W/m 12,9 km/h (3 Bft) 100,00 %
21.10.2023 06:50 12,9 C 12,2 C 10,0 C 99 % 988,7 hPa 0,0 l/m 0 min 0 min 0 W/m 6,4 km/h (2 Bft) 97,87 %
21.10.2023 06:52 12,9 C 12,2 C 10,0 C 99 % 988,7 hPa 0,0 l/m 0 min 0 min 0 W/m 6,4 km/h (2 Bft) 97,87 %
21.10.2023 06:54 12,9 C 12,2 C 10,0 C 99 % 988,7 hPa 0,0 l/m 0 min 0 min 0 W/m 3,2 km/h (1 Bft) 97,87 %
21.10.2023 06:56 12,9 C 12,2 C 10,0 C 99 % 988,7 hPa 0,0 l/m 0 min 0 min 0 W/m 6,4 km/h (2 Bft) 100,00 %
21.10.2023 06:58 12,9 C 12,2 C 9,4 C 99 % 988,7 hPa 0,0 l/m 0 min 0 min 0 W/m 3,2 km/h (1 Bft) 97,87 %
21.10.2023 07:00 12,9 C 12,2 C 9,4 C 99 % 988,8 hPa 0,0 l/m 0 min 0 min 0 W/m 3,2 km/h (1 Bft) 100,00 %
21.10.2023 07:02 12,9 C 12,2 C 9,4 C 99 % 988,8 hPa 0,0 l/m 0 min 0 min 0 W/m 3,2 km/h (1 Bft) 100,00 %
21.10.2023 07:04 12,8 C 12,2 C 9,4 C 99 % 988,9 hPa 0,0 l/m 0 min 0 min 0 W/m 3,2 km/h (1 Bft) 98,04 %
21.10.2023 07:06 12,8 C 11,7 C 9,4 C 99 % 989,0 hPa 0,0 l/m 0 min 0 min 0 W/m 6,4 km/h (2 Bft) 95,83 %
21.10.2023 07:08 12,8 C 12,2 C 9,4 C 99 % 988,9 hPa 0,0 l/m 0 min 0 min 0 W/m 3,2 km/h (1 Bft) 100,00 %
21.10.2023 07:10 12,8 C 12,2 C 9,4 C 99 % 989,0 hPa 0,0 l/m 0 min 0 min 0 W/m 3,2 km/h (1 Bft) 97,87 %
21.10.2023 07:12 12,8 C 12,2 C 9,4 C 99 % 989,0 hPa 0,0 l/m 0 min 0 min 0 W/m 3,2 km/h (1 Bft) 97,87 %
21.10.2023 07:14 12,8 C 11,7 C 9,4 C 99 % 989,1 hPa 0,0 l/m 0 min 0 min 0 W/m 3,2 km/h (1 Bft) 100,00 %
21.10.2023 07:16 12,7 C 11,7 C 9,4 C 99 % 989,1 hPa 0,0 l/m 0 min 0 min 0 W/m 3,2 km/h (1 Bft) 93,62 %
21.10.2023 07:18 12,7 C 11,7 C 9,4 C 99 % 989,1 hPa 0,0 l/m 0 min 0 min 0 W/m 3,2 km/h (1 Bft) 100,00 %
21.10.2023 07:20 12,7 C 11,7 C 9,4 C 99 % 989,1 hPa 0,0 l/m 0 min 0 min 0 W/m 3,2 km/h (1 Bft) 100,00 %
21.10.2023 07:22 12,7 C 11,7 C 9,4 C 99 % 989,2 hPa 0,0 l/m 0 min 0 min 0 W/m 3,2 km/h (1 Bft) 100,00 %
21.10.2023 07:24 12,7 C 11,7 C 9,4 C 99 % 989,2 hPa 0,0 l/m 0 min 0 min 0 W/m 3,2 km/h (1 Bft) 100,00 %
21.10.2023 07:26 12,7 C 11,7 C 9,4 C 99 % 989,3 hPa 0,0 l/m 0 min 0 min 0 W/m 3,2 km/h (1 Bft) 100,00 %
21.10.2023 07:28 12,7 C 11,7 C 9,4 C 99 % 989,3 hPa 0,0 l/m 0 min 0 min 0 W/m 3,2 km/h (1 Bft) 100,00 %
21.10.2023 07:30 12,6 C 11,7 C 9,4 C 99 % 989,4 hPa 0,0 l/m 0 min 0 min 0 W/m 3,2 km/h (1 Bft) 100,00 %
21.10.2023 07:32 12,6 C 11,7 C 9,4 C 99 % 989,4 hPa 0,0 l/m 0 min 0 min 0 W/m 3,2 km/h (1 Bft) 97,87 %
21.10.2023 07:34 12,6 C 11,7 C 9,4 C 99 % 989,5 hPa 0,0 l/m 0 min 0 min 0 W/m 3,2 km/h (1 Bft) 100,00 %
21.10.2023 07:36 12,6 C 11,7 C 9,4 C 99 % 989,4 hPa 0,0 l/m 0 min 0 min 0 W/m 3,2 km/h (1 Bft) 100,00 %
21.10.2023 07:38 12,6 C 11,7 C 9,4 C 99 % 989,5 hPa 0,0 l/m 0 min 0 min 0 W/m 3,2 km/h (1 Bft) 100,00 %
21.10.2023 07:40 12,6 C 11,7 C 9,4 C 99 % 989,5 hPa 0,0 l/m 0 min 0 min 0 W/m 3,2 km/h (1 Bft) 95,74 %
21.10.2023 07:42 12,6 C 11,7 C 9,4 C 99 % 989,5 hPa 0,0 l/m 0 min 0 min 0 W/m 6,4 km/h (2 Bft) 97,87 %
21.10.2023 07:44 12,6 C 11,7 C 9,4 C 99 % 989,6 hPa 0,0 l/m 0 min 0 min 0 W/m 3,2 km/h (1 Bft) 100,00 %
21.10.2023 07:46 12,5 C 11,7 C 9,4 C 99 % 989,7 hPa 0,0 l/m 0 min 0 min 0 W/m 3,2 km/h (1 Bft) 100,00 %
21.10.2023 07:48 12,5 C 11,7 C 9,4 C 99 % 989,7 hPa 0,0 l/m 0 min 0 min 0 W/m 3,2 km/h (1 Bft) 97,83 %
21.10.2023 07:50 12,4 C 11,7 C 9,4 C 99 % 989,8 hPa 0,0 l/m 0 min 0 min 0 W/m 6,4 km/h (2 Bft) 97,87 %
21.10.2023 07:52 12,4 C 11,7 C 9,4 C 99 % 989,8 hPa 0,0 l/m 0 min 0 min 0 W/m 6,4 km/h (2 Bft) 97,87 %
21.10.2023 07:54 12,4 C 11,7 C 9,4 C 99 % 989,8 hPa 0,0 l/m 0 min 0 min 0 W/m 6,4 km/h (2 Bft) 97,37 %
21.10.2023 07:56 12,4 C 11,7 C 9,4 C 99 % 989,9 hPa 0,0 l/m 0 min 0 min 0 W/m 6,4 km/h (2 Bft) 97,87 %
21.10.2023 07:58 12,4 C 11,7 C 9,4 C 99 % 989,9 hPa 0,0 l/m 0 min 0 min 0 W/m 3,2 km/h (1 Bft) 97,83 %
21.10.2023 08:00 12,4 C 11,7 C 9,4 C 99 % 990,0 hPa 0,0 l/m 0 min 0 min 0 W/m 3,2 km/h (1 Bft) 97,87 %
21.10.2023 08:02 12,3 C 11,7 C 9,4 C 99 % 990,0 hPa 0,0 l/m 0 min 0 min 0 W/m 3,2 km/h (1 Bft) 97,87 %
21.10.2023 08:04 12,3 C 11,7 C 9,4 C 99 % 990,0 hPa 0,0 l/m 0 min 0 min 0 W/m 6,4 km/h (2 Bft) 97,92 %
21.10.2023 08:06 12,3 C 11,7 C 9,4 C 99 % 990,0 hPa 0,0 l/m 0 min 0 min 0 W/m 3,2 km/h (1 Bft) 96,55 %
21.10.2023 08:08 12,4 C 11,7 C 9,4 C 99 % 990,1 hPa 0,0 l/m 0 min 0 min 0 W/m 3,2 km/h (1 Bft) 94,29 %
21.10.2023 08:10 12,4 C 11,7 C 9,4 C 99 % 990,1 hPa 0,0 l/m 0 min 0 min 0 W/m 6,4 km/h (2 Bft) 95,74 %
21.10.2023 08:12 12,4 C 12,2 C 9,4 C 99 % 990,2 hPa 0,0 l/m 0 min 0 min 0 W/m 12,9 km/h (3 Bft) 93,62 %
21.10.2023 08:14 12,4 C 12,2 C 9,4 C 99 % 990,2 hPa 0,0 l/m 0 min 0 min 0 W/m 6,4 km/h (2 Bft) 95,74 %
21.10.2023 08:16 12,4 C 12,2 C 9,4 C 99 % 990,3 hPa 0,0 l/m 0 min 0 min 0 W/m 6,4 km/h (2 Bft) 89,36 %
21.10.2023 08:18 12,5 C 12,2 C 9,4 C 99 % 990,3 hPa 0,0 l/m 0 min 0 min 0 W/m 3,2 km/h (1 Bft) 93,62 %
21.10.2023 08:20 12,5 C 12,2 C 9,4 C 99 % 990,4 hPa 0,0 l/m 0 min 0 min 0 W/m 0,0 km/h (0 Bft) 97,87 %
21.10.2023 08:22 12,6 C 12,2 C 9,4 C 99 % 990,5 hPa 0,0 l/m 0 min 0 min 0 W/m 0,0 km/h (0 Bft) 97,83 %
21.10.2023 08:24 12,6 C 12,2 C 9,4 C 99 % 990,6 hPa 0,0 l/m 0 min 0 min 0 W/m 0,0 km/h (0 Bft) 97,87 %
21.10.2023 08:26 12,6 C 12,2 C 9,4 C 99 % 990,5 hPa 0,0 l/m 0 min 0 min 0 W/m 0,0 km/h (0 Bft) 95,74 %
21.10.2023 08:28 12,6 C 12,2 C 9,4 C 99 % 990,6 hPa 0,0 l/m 0 min 0 min 0 W/m 0,0 km/h (0 Bft) 97,87 %
21.10.2023 08:30 12,6 C 12,2 C 9,4 C 99 % 990,6 hPa 0,0 l/m 0 min 0 min 0 W/m 0,0 km/h (0 Bft) 95,74 %
21.10.2023 08:32 12,7 C 12,2 C 10,0 C 99 % 990,7 hPa 0,0 l/m 0 min 0 min 0 W/m 0,0 km/h (0 Bft) 91,49 %
21.10.2023 08:34 12,7 C 12,2 C 10,0 C 99 % 990,7 hPa 0,0 l/m 0 min 0 min 2 W/m 0,0 km/h (0 Bft) 95,74 %
21.10.2023 08:36 12,7 C 12,2 C 10,0 C 99 % 990,8 hPa 0,0 l/m 0 min 0 min 6 W/m 6,4 km/h (2 Bft) 95,65 %
21.10.2023 08:38 12,7 C 12,2 C 10,0 C 99 % 990,8 hPa 0,0 l/m 0 min 0 min 7 W/m 3,2 km/h (1 Bft) 95,74 %
21.10.2023 08:40 12,7 C 12,2 C 10,0 C 100 % 990,8 hPa 0,0 l/m 0 min 0 min 7 W/m 6,4 km/h (2 Bft) 95,74 %
21.10.2023 08:42 12,7 C 12,2 C 10,0 C 100 % 990,9 hPa 0,0 l/m 0 min 0 min 7 W/m 12,9 km/h (3 Bft) 95,74 %
21.10.2023 08:44 12,7 C 12,2 C 10,0 C 100 % 990,9 hPa 0,0 l/m 0 min 0 min 7 W/m 9,7 km/h (2 Bft) 90,70 %
21.10.2023 08:46 12,8 C 12,2 C 10,0 C 100 % 991,0 hPa 0,0 l/m 0 min 0 min 7 W/m 12,9 km/h (3 Bft) 53,66 %
21.10.2023 08:48 12,8 C 12,2 C 10,0 C 100 % 991,1 hPa 0,0 l/m 0 min 0 min 6 W/m 12,9 km/h (3 Bft) 95,74 %
21.10.2023 08:50 12,8 C 12,2 C 10,0 C 100 % 991,2 hPa 0,0 l/m 0 min 0 min 5 W/m 12,9 km/h (3 Bft) 93,62 %
21.10.2023 08:52 12,8 C 12,2 C 10,0 C 100 % 991,3 hPa 0,0 l/m 0 min 0 min 5 W/m 12,9 km/h (3 Bft) 93,62 %
21.10.2023 08:55 12,8 C 12,8 C 10,0 C 100 % 991,3 hPa 0,0 l/m 0 min 0 min 7 W/m 12,9 km/h (3 Bft) 98,25 %
21.10.2023 08:58 12,8 C 12,8 C 10,0 C 100 % 991,3 hPa 0,0 l/m 0 min 0 min 8 W/m 3,2 km/h (1 Bft) 96,90 %
21.10.2023 09:00 12,8 C 12,8 C 10,0 C 100 % 991,4 hPa 0,0 l/m 0 min 0 min 7 W/m 6,4 km/h (2 Bft) 98,41 %
21.10.2023 09:02 12,8 C 12,8 C 10,0 C 100 % 991,5 hPa 0,0 l/m 0 min 0 min 7 W/m 12,9 km/h (3 Bft) 96,00 %
21.10.2023 09:04 12,8 C 12,8 C 10,0 C 100 % 991,5 hPa 0,0 l/m 0 min 0 min 8 W/m 6,4 km/h (2 Bft) 96,08 %
21.10.2023 09:05 12,8 C 12,8 C 10,0 C 100 % 991,6 hPa 0,0 l/m 0 min 0 min 8 W/m 12,9 km/h (3 Bft) 100,00 %
21.10.2023 09:08 12,8 C 12,8 C 10,0 C 100 % 991,6 hPa 0,0 l/m 0 min 0 min 10 W/m 6,4 km/h (2 Bft) 97,78 %
21.10.2023 09:10 12,8 C 12,8 C 10,0 C 100 % 991,6 hPa 0,0 l/m 0 min 0 min 10 W/m 12,9 km/h (3 Bft) 97,87 %
21.10.2023 09:12 12,8 C 12,8 C 10,0 C 100 % 991,7 hPa 0,0 l/m 0 min 0 min 11 W/m 6,4 km/h (2 Bft) 95,74 %
21.10.2023 09:14 12,8 C 12,8 C 10,0 C 99 % 991,8 hPa 0,0 l/m 0 min 0 min 16 W/m 12,9 km/h (3 Bft) 97,87 %
21.10.2023 09:16 12,9 C 12,8 C 10,0 C 99 % 991,8 hPa 0,0 l/m 0 min 0 min 21 W/m 19,3 km/h (3 Bft) 100,00 %
21.10.2023 09:20 12,9 C 12,8 C 10,0 C 99 % 991,9 hPa 0,0 l/m 0 min 0 min 25 W/m 16,1 km/h (3 Bft) 98,95 %
21.10.2023 09:22 12,9 C 12,8 C 10,0 C 99 % 992,0 hPa 0,0 l/m 0 min 0 min 26 W/m 16,1 km/h (3 Bft) 100,00 %
21.10.2023 09:24 12,9 C 12,8 C 10,0 C 99 % 992,0 hPa 0,0 l/m 0 min 0 min 27 W/m 19,3 km/h (3 Bft) 97,87 %
21.10.2023 09:26 12,9 C 12,8 C 10,0 C 99 % 992,1 hPa 0,0 l/m 0 min 0 min 29 W/m 16,1 km/h (3 Bft) 100,00 %
21.10.2023 09:28 12,9 C 12,8 C 10,0 C 99 % 992,2 hPa 0,0 l/m 0 min 0 min 28 W/m 12,9 km/h (3 Bft) 100,00 %
21.10.2023 09:30 13,0 C 12,8 C 10,0 C 99 % 992,3 hPa 0,0 l/m 0 min 0 min 24 W/m 12,9 km/h (3 Bft) 100,00 %
21.10.2023 09:32 13,0 C 12,8 C 10,0 C 99 % 992,3 hPa 0,0 l/m 0 min 0 min 25 W/m 9,7 km/h (2 Bft) 96,49 %
21.10.2023 09:34 13,0 C 12,8 C 10,0 C 99 % 992,4 hPa 0,0 l/m 0 min 0 min 30 W/m 3,2 km/h (1 Bft) 100,00 %
21.10.2023 09:36 13,0 C 12,8 C 10,0 C 100 % 992,4 hPa 0,0 l/m 0 min 0 min 31 W/m 3,2 km/h (1 Bft) 97,83 %
21.10.2023 09:38 13,1 C 12,8 C 10,0 C 99 % 992,4 hPa 0,0 l/m 0 min 0 min 24 W/m 9,7 km/h (2 Bft) 100,00 %
21.10.2023 09:40 13,1 C 12,8 C 10,0 C 99 % 992,4 hPa 0,0 l/m 0 min 0 min 31 W/m 9,7 km/h (2 Bft) 100,00 %
21.10.2023 09:42 13,1 C 12,8 C 10,0 C 99 % 992,5 hPa 0,0 l/m 0 min 0 min 41 W/m 6,4 km/h (2 Bft) 97,87 %
21.10.2023 09:44 13,1 C 12,8 C 10,0 C 99 % 992,6 hPa 0,0 l/m 0 min 0 min 41 W/m 9,7 km/h (2 Bft) 97,87 %
21.10.2023 09:46 13,1 C 12,8 C 10,0 C 99 % 992,7 hPa 0,0 l/m 0 min 0 min 35 W/m 6,4 km/h (2 Bft) 97,87 %
21.10.2023 09:48 13,1 C 12,8 C 10,0 C 99 % 992,9 hPa 0,2 l/m 0 min 2 min 38 W/m 12,9 km/h (3 Bft) 97,87 %
21.10.2023 09:50 13,1 C 12,8 C 10,0 C 99 % 992,7 hPa 0,2 l/m 0 min 2 min 68 W/m 12,9 km/h (3 Bft) 95,74 %
21.10.2023 09:52 13,1 C 12,8 C 10,0 C 99 % 992,8 hPa 0,0 l/m 0 min 2 min 65 W/m 12,9 km/h (3 Bft) 95,74 %
21.10.2023 09:54 13,1 C 12,8 C 10,0 C 99 % 992,8 hPa 0,0 l/m 0 min 0 min 58 W/m 3,2 km/h (1 Bft) 97,92 %
21.10.2023 09:56 13,1 C 12,8 C 10,0 C 99 % 992,9 hPa 0,0 l/m 0 min 0 min 56 W/m 0,0 km/h (0 Bft) 97,83 %
21.10.2023 09:58 13,1 C 12,8 C 10,0 C 99 % 992,9 hPa 0,0 l/m 0 min 0 min 87 W/m 0,0 km/h (0 Bft) 97,87 %
21.10.2023 10:00 13,1 C 12,8 C 10,0 C 99 % 992,9 hPa 0,0 l/m 0 min 0 min 76 W/m 16,1 km/h (3 Bft) 100,00 %
21.10.2023 10:02 13,1 C 13,3 C 10,0 C 99 % 992,9 hPa 0,0 l/m 0 min 0 min 87 W/m 12,9 km/h (3 Bft) 95,74 %
21.10.2023 10:04 13,1 C 13,3 C 10,0 C 99 % 993,0 hPa 0,0 l/m 0 min 0 min 104 W/m 12,9 km/h (3 Bft) 92,00 %
21.10.2023 10:06 13,1 C 13,3 C 10,0 C 99 % 993,0 hPa 0,0 l/m 0 min 0 min 105 W/m 6,4 km/h (2 Bft) 97,87 %
21.10.2023 10:08 13,1 C 13,3 C 10,0 C 99 % 993,1 hPa 0,0 l/m 0 min 0 min 78 W/m 12,9 km/h (3 Bft) 97,87 %
21.10.2023 10:10 13,2 C 13,3 C 10,0 C 99 % 993,1 hPa 0,0 l/m 0 min 0 min 97 W/m 12,9 km/h (3 Bft) 97,87 %
21.10.2023 10:12 13,2 C 13,3 C 10,0 C 99 % 993,2 hPa 0,0 l/m 2 min 0 min 142 W/m 25,7 km/h (4 Bft) 97,87 %
21.10.2023 10:14 13,1 C 13,3 C 10,0 C 99 % 993,3 hPa 0,0 l/m 2 min 0 min 143 W/m 16,1 km/h (3 Bft) 100,00 %
21.10.2023 10:16 13,1 C 13,3 C 10,0 C 99 % 993,2 hPa 0,0 l/m 0 min 0 min 120 W/m 35,4 km/h (5 Bft) 100,00 %
21.10.2023 10:18 13,1 C 13,3 C 10,0 C 99 % 993,3 hPa 0,0 l/m 0 min 0 min 69 W/m 19,3 km/h (3 Bft) 100,00 %
21.10.2023 10:20 13,1 C 13,3 C 9,4 C 98 % 993,4 hPa 0,0 l/m 0 min 0 min 73 W/m 35,4 km/h (5 Bft) 97,83 %
21.10.2023 10:22 13,1 C 13,3 C 9,4 C 98 % 993,5 hPa 0,0 l/m 0 min 0 min 45 W/m 45,1 km/h (6 Bft) 100,00 %
21.10.2023 10:24 13,1 C 13,3 C 9,4 C 98 % 993,5 hPa 0,0 l/m 0 min 0 min 83 W/m 29,0 km/h (5 Bft) 100,00 %
21.10.2023 10:26 13,2 C 13,3 C 9,4 C 98 % 993,5 hPa 0,0 l/m 0 min 0 min 82 W/m 19,3 km/h (3 Bft) 97,87 %
21.10.2023 10:28 13,2 C 13,3 C 9,4 C 97 % 993,6 hPa 0,0 l/m 0 min 0 min 85 W/m 19,3 km/h (3 Bft) 97,87 %
21.10.2023 10:30 13,2 C 13,3 C 9,4 C 97 % 993,6 hPa 0,0 l/m 0 min 0 min 70 W/m 32,2 km/h (5 Bft) 100,00 %
21.10.2023 10:32 13,2 C 13,3 C 9,4 C 97 % 993,7 hPa 0,0 l/m 0 min 0 min 48 W/m 38,6 km/h (5 Bft) 97,87 %
21.10.2023 10:34 13,3 C 13,3 C 9,4 C 96 % 993,7 hPa 0,0 l/m 0 min 0 min 54 W/m 29,0 km/h (5 Bft) 97,87 %
21.10.2023 10:36 13,3 C 13,3 C 9,4 C 96 % 993,7 hPa 0,0 l/m 0 min 0 min 68 W/m 22,5 km/h (4 Bft) 100,00 %
21.10.2023 10:38 13,4 C 13,3 C 9,4 C 96 % 993,8 hPa 0,0 l/m 0 min 0 min 73 W/m 19,3 km/h (3 Bft) 97,87 %
21.10.2023 10:40 13,4 C 13,3 C 9,4 C 95 % 993,8 hPa 0,0 l/m 0 min 0 min 63 W/m 22,5 km/h (4 Bft) 95,74 %
21.10.2023 10:42 13,4 C 13,3 C 9,4 C 95 % 993,8 hPa 0,0 l/m 0 min 0 min 78 W/m 25,7 km/h (4 Bft) 100,00 %
21.10.2023 10:44 13,4 C 13,3 C 9,4 C 94 % 993,7 hPa 0,0 l/m 0 min 0 min 102 W/m 22,5 km/h (4 Bft) 100,00 %
21.10.2023 10:46 13,4 C 13,3 C 9,4 C 93 % 993,8 hPa 0,0 l/m 0 min 0 min 157 W/m 16,1 km/h (3 Bft) 95,74 %
21.10.2023 10:48 13,5 C 13,9 C 9,4 C 93 % 993,8 hPa 0,0 l/m 0 min 0 min 124 W/m 16,1 km/h (3 Bft) 97,87 %
21.10.2023 10:50 13,6 C 13,9 C 9,4 C 93 % 993,9 hPa 0,0 l/m 0 min 0 min 134 W/m 22,5 km/h (4 Bft) 100,00 %
21.10.2023 10:52 13,6 C 13,9 C 9,4 C 93 % 993,8 hPa 0,0 l/m 0 min 0 min 134 W/m 16,1 km/h (3 Bft) 97,87 %
21.10.2023 10:54 13,7 C 14,4 C 9,4 C 92 % 993,8 hPa 0,0 l/m 0 min 0 min 83 W/m 25,7 km/h (4 Bft) 100,00 %
21.10.2023 10:56 13,8 C 14,4 C 9,4 C 91 % 993,9 hPa 0,0 l/m 0 min 0 min 120 W/m 22,5 km/h (4 Bft) 100,00 %
21.10.2023 10:58 13,8 C 15,0 C 9,4 C 91 % 993,7 hPa 0,0 l/m 0 min 0 min 80 W/m 19,3 km/h (3 Bft) 100,00 %
21.10.2023 11:00 13,9 C 15,0 C 9,4 C 90 % 993,9 hPa 0,0 l/m 0 min 0 min 62 W/m 29,0 km/h (5 Bft) 100,00 %
21.10.2023 11:02 14,0 C 15,0 C 9,4 C 89 % 993,9 hPa 0,0 l/m 0 min 0 min 62 W/m 22,5 km/h (4 Bft) 95,92 %
21.10.2023 11:04 14,1 C 15,6 C 9,4 C 89 % 993,9 hPa 0,0 l/m 0 min 0 min 92 W/m 16,1 km/h (3 Bft) 100,00 %
21.10.2023 11:08 14,2 C 15,6 C 9,4 C 87 % 994,0 hPa 0,0 l/m 0 min 0 min 128 W/m 35,4 km/h (5 Bft) 95,74 %
21.10.2023 11:10 14,3 C 15,6 C 9,4 C 87 % 994,1 hPa 0,0 l/m 2 min 0 min 378 W/m 32,2 km/h (5 Bft) 97,67 %
21.10.2023 11:12 14,3 C 15,6 C 9,4 C 87 % 994,1 hPa 0,0 l/m 2 min 0 min 378 W/m 25,7 km/h (4 Bft) 94,00 %
21.10.2023 11:14 14,3 C 16,1 C 9,4 C 87 % 994,1 hPa 0,0 l/m 2 min 0 min 471 W/m 12,9 km/h (3 Bft) 95,74 %
21.10.2023 11:16 14,3 C 15,6 C 9,4 C 86 % 994,1 hPa 0,0 l/m 2 min 0 min 233 W/m 16,1 km/h (3 Bft) 91,49 %
21.10.2023 11:18 14,4 C 16,1 C 9,4 C 86 % 994,1 hPa 0,0 l/m 2 min 0 min 260 W/m 12,9 km/h (3 Bft) 95,74 %
21.10.2023 11:20 14,6 C 16,7 C 10,0 C 86 % 994,2 hPa 0,0 l/m 2 min 0 min 330 W/m 22,5 km/h (4 Bft) 95,74 %
21.10.2023 11:22 14,7 C 15,6 C 9,4 C 85 % 994,2 hPa 0,0 l/m 2 min 0 min 203 W/m 25,7 km/h (4 Bft) 95,74 %
21.10.2023 11:24 14,6 C 15,0 C 9,4 C 85 % 994,2 hPa 0,0 l/m 0 min 0 min 151 W/m 19,3 km/h (3 Bft) 95,74 %
21.10.2023 11:26 14,6 C 15,0 C 9,4 C 85 % 994,2 hPa 0,0 l/m 0 min 0 min 143 W/m 22,5 km/h (4 Bft) 89,36 %
21.10.2023 11:28 14,6 C 16,1 C 10,0 C 84 % 994,2 hPa 0,0 l/m 0 min 0 min 149 W/m 29,0 km/h (5 Bft) 93,62 %
21.10.2023 11:30 14,7 C 17,2 C 10,0 C 85 % 994,3 hPa 0,0 l/m 0 min 0 min 192 W/m 12,9 km/h (3 Bft) 95,74 %
21.10.2023 11:32 14,7 C 18,3 C 10,6 C 85 % 994,3 hPa 0,0 l/m 2 min 0 min 318 W/m 29,0 km/h (5 Bft) 95,74 %
21.10.2023 11:34 14,8 C 18,9 C 10,6 C 84 % 994,3 hPa 0,0 l/m 2 min 0 min 281 W/m 29,0 km/h (5 Bft) 52,17 %
21.10.2023 11:36 14,8 C 18,9 C 10,6 C 82 % 994,3 hPa 0,0 l/m 2 min 0 min 279 W/m 45,1 km/h (6 Bft) 95,65 %
21.10.2023 11:38 14,9 C 19,4 C 10,6 C 82 % 994,3 hPa 0,0 l/m 0 min 0 min 83 W/m 22,5 km/h (4 Bft) 93,62 %
21.10.2023 11:40 14,9 C 20,0 C 11,1 C 83 % 994,4 hPa 0,0 l/m 0 min 0 min 98 W/m 35,4 km/h (5 Bft) 93,62 %
21.10.2023 11:42 15,0 C 19,4 C 12,2 C 82 % 994,4 hPa 0,0 l/m 0 min 0 min 91 W/m 25,7 km/h (4 Bft) 91,49 %
21.10.2023 11:44 14,9 C 17,2 C 12,2 C 81 % 994,5 hPa 0,0 l/m 0 min 0 min 152 W/m 51,5 km/h (7 Bft) 89,36 %
21.10.2023 11:46 15,0 C 16,7 C 12,2 C 81 % 994,4 hPa 0,0 l/m 0 min 0 min 145 W/m 25,7 km/h (4 Bft) 91,49 %
21.10.2023 11:48 15,1 C 16,1 C 12,2 C 81 % 994,5 hPa 0,0 l/m 0 min 0 min 154 W/m 29,0 km/h (5 Bft) 93,62 %
21.10.2023 11:50 15,1 C 15,6 C 12,2 C 81 % 994,6 hPa 0,0 l/m 0 min 0 min 168 W/m 22,5 km/h (4 Bft) 95,74 %
21.10.2023 11:52 15,1 C 15,6 C 12,2 C 81 % 994,6 hPa 0,0 l/m 0 min 0 min 128 W/m 22,5 km/h (4 Bft) 95,74 %
21.10.2023 11:54 15,1 C 15,6 C 12,2 C 81 % 994,7 hPa 0,0 l/m 0 min 0 min 72 W/m 32,2 km/h (5 Bft) 91,43 %
21.10.2023 11:56 15,2 C 15,6 C 11,7 C 80 % 994,7 hPa 0,0 l/m 0 min 0 min 59 W/m 32,2 km/h (5 Bft) 95,74 %
21.10.2023 11:58 15,2 C 15,0 C 11,7 C 80 % 994,7 hPa 0,0 l/m 0 min 0 min 55 W/m 22,5 km/h (4 Bft) 95,74 %
21.10.2023 12:00 15,2 C 15,0 C 11,1 C 80 % 994,6 hPa 0,0 l/m 0 min 0 min 72 W/m 25,7 km/h (4 Bft) 95,65 %
21.10.2023 12:02 15,2 C 15,0 C 11,1 C 81 % 994,8 hPa 0,0 l/m 0 min 0 min 70 W/m 22,5 km/h (4 Bft) 91,49 %
21.10.2023 12:04 15,2 C 15,0 C 11,1 C 81 % 994,7 hPa 0,0 l/m 0 min 0 min 50 W/m 25,7 km/h (4 Bft) 94,34 %
21.10.2023 12:08 15,2 C 15,0 C 11,1 C 80 % 994,8 hPa 0,0 l/m 0 min 0 min 49 W/m 29,0 km/h (5 Bft) 94,85 %
21.10.2023 12:10 15,2 C 15,0 C 11,1 C 80 % 994,9 hPa 0,0 l/m 0 min 0 min 70 W/m 22,5 km/h (4 Bft) 100,00 %
21.10.2023 12:12 15,2 C 15,0 C 11,1 C 81 % 994,8 hPa 0,0 l/m 0 min 0 min 92 W/m 32,2 km/h (5 Bft) 97,83 %
21.10.2023 12:16 15,2 C 15,0 C 11,1 C 81 % 994,9 hPa 0,0 l/m 0 min 0 min 102 W/m 19,3 km/h (3 Bft) 97,87 %
21.10.2023 12:18 15,1 C 15,0 C 10,6 C 81 % 995,0 hPa 0,0 l/m 0 min 0 min 107 W/m 32,2 km/h (5 Bft) 100,00 %
21.10.2023 12:20 15,1 C 15,0 C 10,6 C 81 % 995,0 hPa 0,0 l/m 0 min 0 min 127 W/m 19,3 km/h (3 Bft) 100,00 %
21.10.2023 12:22 15,1 C 15,0 C 10,6 C 80 % 994,9 hPa 0,0 l/m 0 min 0 min 131 W/m 25,7 km/h (4 Bft) 100,00 %
21.10.2023 12:24 15,1 C 15,0 C 10,6 C 81 % 995,0 hPa 0,0 l/m 0 min 0 min 172 W/m 22,5 km/h (4 Bft) 97,87 %
21.10.2023 12:26 15,1 C 15,6 C 11,1 C 82 % 995,0 hPa 0,0 l/m 0 min 0 min 211 W/m 41,8 km/h (6 Bft) 100,00 %
21.10.2023 12:28 15,2 C 15,6 C 11,1 C 81 % 995,0 hPa 0,0 l/m 0 min 0 min 146 W/m 32,2 km/h (5 Bft) 100,00 %
21.10.2023 12:30 15,3 C 15,6 C 11,1 C 80 % 995,0 hPa 0,0 l/m 0 min 0 min 92 W/m 41,8 km/h (6 Bft) 97,87 %
21.10.2023 12:32 15,4 C 15,6 C 11,1 C 79 % 995,0 hPa 0,0 l/m 0 min 0 min 94 W/m 35,4 km/h (5 Bft) 100,00 %
21.10.2023 12:34 15,5 C 15,6 C 11,1 C 79 % 995,1 hPa 0,0 l/m 0 min 0 min 120 W/m 38,6 km/h (5 Bft) 100,00 %
21.10.2023 12:36 15,6 C 15,6 C 11,1 C 78 % 995,1 hPa 0,0 l/m 0 min 0 min 105 W/m 45,1 km/h (6 Bft) 100,00 %
21.10.2023 12:38 15,6 C 15,6 C 11,1 C 78 % 995,2 hPa 0,0 l/m 0 min 0 min 75 W/m 48,3 km/h (6 Bft) 97,87 %
21.10.2023 12:40 15,7 C 15,6 C 11,1 C 78 % 995,2 hPa 0,0 l/m 0 min 0 min 68 W/m 35,4 km/h (5 Bft) 95,74 %
21.10.2023 12:42 15,7 C 15,6 C 11,1 C 78 % 995,2 hPa 0,0 l/m 0 min 0 min 60 W/m 22,5 km/h (4 Bft) 100,00 %
21.10.2023 12:44 15,8 C 15,6 C 11,1 C 77 % 995,2 hPa 0,0 l/m 0 min 0 min 70 W/m 29,0 km/h (5 Bft) 100,00 %
21.10.2023 12:46 15,8 C 15,6 C 11,1 C 77 % 995,3 hPa 0,0 l/m 0 min 0 min 60 W/m 32,2 km/h (5 Bft) 100,00 %
21.10.2023 12:48 15,8 C 15,6 C 11,1 C 77 % 995,3 hPa 0,0 l/m 0 min 0 min 74 W/m 35,4 km/h (5 Bft) 100,00 %
21.10.2023 12:50 15,8 C 15,6 C 11,7 C 77 % 995,3 hPa 0,0 l/m 0 min 0 min 73 W/m 35,4 km/h (5 Bft) 100,00 %
21.10.2023 12:52 15,8 C 15,6 C 11,7 C 77 % 995,4 hPa 0,0 l/m 0 min 0 min 57 W/m 29,0 km/h (5 Bft) 100,00 %
21.10.2023 12:54 15,9 C 15,6 C 11,7 C 76 % 995,3 hPa 0,0 l/m 0 min 0 min 85 W/m 29,0 km/h (5 Bft) 97,56 %
21.10.2023 12:56 15,9 C 15,6 C 11,7 C 76 % 995,4 hPa 0,0 l/m 0 min 0 min 96 W/m 29,0 km/h (5 Bft) 100,00 %
21.10.2023 12:58 15,8 C 15,6 C 11,7 C 76 % 995,5 hPa 0,0 l/m 0 min 0 min 77 W/m 38,6 km/h (5 Bft) 100,00 %
21.10.2023 13:00 15,8 C 15,6 C 11,7 C 76 % 995,4 hPa 0,0 l/m 0 min 0 min 88 W/m 32,2 km/h (5 Bft) 100,00 %
21.10.2023 13:02 15,8 C 15,6 C 11,7 C 76 % 995,4 hPa 0,0 l/m 0 min 0 min 80 W/m 29,0 km/h (5 Bft) 97,87 %
21.10.2023 13:04 15,8 C 15,6 C 11,7 C 76 % 995,5 hPa 0,0 l/m 0 min 0 min 55 W/m 22,5 km/h (4 Bft) 95,56 %
21.10.2023 13:06 15,8 C 15,6 C 11,7 C 76 % 995,5 hPa 0,0 l/m 0 min 0 min 56 W/m 25,7 km/h (4 Bft) 100,00 %
21.10.2023 13:08 15,9 C 15,6 C 11,7 C 76 % 995,5 hPa 0,0 l/m 0 min 0 min 45 W/m 35,4 km/h (5 Bft) 100,00 %
21.10.2023 13:10 15,9 C 15,6 C 11,7 C 76 % 995,5 hPa 0,0 l/m 0 min 0 min 46 W/m 19,3 km/h (3 Bft) 100,00 %
21.10.2023 13:12 15,9 C 15,6 C 11,7 C 76 % 995,4 hPa 0,0 l/m 0 min 0 min 48 W/m 22,5 km/h (4 Bft) 100,00 %
21.10.2023 13:14 15,9 C 15,6 C 11,7 C 75 % 995,4 hPa 0,0 l/m 0 min 0 min 46 W/m 22,5 km/h (4 Bft) 100,00 %
21.10.2023 13:16 15,9 C 15,6 C 11,7 C 74 % 995,7 hPa 0,0 l/m 0 min 0 min 46 W/m 48,3 km/h (6 Bft) 97,87 %
21.10.2023 13:18 15,9 C 15,6 C 11,7 C 74 % 995,5 hPa 0,0 l/m 0 min 0 min 48 W/m 22,5 km/h (4 Bft) 97,87 %
21.10.2023 13:20 15,9 C 15,6 C 11,7 C 74 % 995,6 hPa 0,0 l/m 0 min 0 min 66 W/m 29,0 km/h (5 Bft) 100,00 %
21.10.2023 13:22 15,9 C 15,6 C 11,7 C 74 % 995,6 hPa 0,0 l/m 0 min 0 min 78 W/m 29,0 km/h (5 Bft) 95,74 %
21.10.2023 13:24 16,0 C 15,6 C 11,7 C 75 % 995,6 hPa 0,0 l/m 0 min 0 min 69 W/m 12,9 km/h (3 Bft) 100,00 %
21.10.2023 13:26 16,1 C 15,6 C 11,7 C 75 % 995,6 hPa 0,0 l/m 0 min 0 min 71 W/m 22,5 km/h (4 Bft) 100,00 %
21.10.2023 13:28 16,1 C 15,6 C 11,7 C 75 % 995,5 hPa 0,0 l/m 0 min 0 min 58 W/m 29,0 km/h (5 Bft) 97,87 %
21.10.2023 13:30 16,1 C 15,6 C 11,7 C 75 % 995,5 hPa 0,0 l/m 0 min 0 min 58 W/m 29,0 km/h (5 Bft) 100,00 %
21.10.2023 13:32 16,1 C 15,6 C 11,7 C 75 % 995,6 hPa 0,0 l/m 0 min 0 min 61 W/m 29,0 km/h (5 Bft) 97,87 %
21.10.2023 13:34 16,1 C 16,1 C 12,2 C 75 % 995,6 hPa 0,0 l/m 0 min 0 min 71 W/m 29,0 km/h (5 Bft) 93,62 %
21.10.2023 13:36 16,2 C 16,1 C 12,2 C 74 % 995,4 hPa 0,0 l/m 0 min 0 min 64 W/m 35,4 km/h (5 Bft) 97,87 %
21.10.2023 13:38 16,2 C 15,6 C 12,2 C 73 % 995,6 hPa 0,0 l/m 0 min 0 min 55 W/m 45,1 km/h (6 Bft) 95,74 %
21.10.2023 13:40 16,2 C 15,6 C 12,2 C 73 % 995,7 hPa 0,0 l/m 0 min 0 min 75 W/m 29,0 km/h (5 Bft) 95,74 %
21.10.2023 13:42 16,2 C 15,6 C 12,2 C 73 % 995,5 hPa 0,0 l/m 0 min 0 min 55 W/m 25,7 km/h (4 Bft) 93,62 %
21.10.2023 13:44 16,2 C 15,6 C 12,2 C 73 % 995,6 hPa 0,0 l/m 0 min 0 min 66 W/m 32,2 km/h (5 Bft) 95,65 %
21.10.2023 13:46 16,2 C 16,1 C 12,2 C 73 % 995,6 hPa 0,0 l/m 0 min 0 min 96 W/m 35,4 km/h (5 Bft) 97,87 %
21.10.2023 13:48 16,3 C 16,1 C 12,2 C 72 % 995,6 hPa 0,0 l/m 0 min 0 min 94 W/m 22,5 km/h (4 Bft) 93,62 %
21.10.2023 13:50 16,3 C 15,6 C 11,7 C 72 % 995,6 hPa 0,0 l/m 0 min 0 min 116 W/m 22,5 km/h (4 Bft) 97,87 %
21.10.2023 13:52 16,2 C 15,6 C 11,7 C 71 % 995,6 hPa 0,0 l/m 0 min 0 min 138 W/m 25,7 km/h (4 Bft) 91,49 %
21.10.2023 13:54 16,2 C 15,6 C 11,7 C 71 % 995,7 hPa 0,0 l/m 0 min 0 min 198 W/m 22,5 km/h (4 Bft) 95,74 %
21.10.2023 13:56 16,1 C 16,1 C 11,7 C 72 % 995,8 hPa 0,0 l/m 0 min 0 min 219 W/m 19,3 km/h (3 Bft) 95,74 %
21.10.2023 13:58 16,1 C 16,1 C 12,2 C 72 % 995,7 hPa 0,0 l/m 2 min 0 min 252 W/m 22,5 km/h (4 Bft) 92,45 %
21.10.2023 14:00 16,1 C 16,1 C 12,2 C 72 % 995,8 hPa 0,0 l/m 2 min 0 min 248 W/m 35,4 km/h (5 Bft) 91,49 %
21.10.2023 14:02 16,1 C 16,1 C 12,2 C 72 % 995,7 hPa 0,0 l/m 2 min 0 min 247 W/m 35,4 km/h (5 Bft) 93,62 %
21.10.2023 14:04 16,0 C 16,1 C 12,2 C 72 % 995,7 hPa 0,0 l/m 2 min 0 min 248 W/m 22,5 km/h (4 Bft) 89,36 %
21.10.2023 14:10 16,1 C 16,1 C 12,2 C 72 % 995,7 hPa 0,0 l/m 5 min 0 min 396 W/m 32,2 km/h (5 Bft) 92,97 %
21.10.2023 14:12 16,2 C 16,1 C 12,2 C 72 % 995,7 hPa 0,0 l/m 2 min 0 min 492 W/m 35,4 km/h (5 Bft) 95,74 %
21.10.2023 14:14 16,2 C 16,1 C 12,2 C 71 % 995,8 hPa 0,0 l/m 2 min 0 min 489 W/m 38,6 km/h (5 Bft) 93,62 %
21.10.2023 14:16 16,2 C 15,6 C 11,7 C 70 % 995,7 hPa 0,0 l/m 2 min 0 min 488 W/m 38,6 km/h (5 Bft) 95,74 %
21.10.2023 14:18 16,2 C 15,6 C 11,7 C 70 % 995,9 hPa 0,0 l/m 2 min 0 min 486 W/m 19,3 km/h (3 Bft) 95,74 %
21.10.2023 14:20 16,3 C 15,6 C 11,7 C 70 % 995,9 hPa 0,0 l/m 2 min 0 min 486 W/m 29,0 km/h (5 Bft) 95,74 %
21.10.2023 14:22 16,3 C 15,6 C 11,7 C 70 % 995,8 hPa 0,0 l/m 2 min 0 min 484 W/m 22,5 km/h (4 Bft) 93,62 %
21.10.2023 14:24 16,3 C 16,1 C 11,7 C 70 % 995,9 hPa 0,0 l/m 2 min 0 min 483 W/m 45,1 km/h (6 Bft) 95,74 %
21.10.2023 14:26 16,3 C 16,1 C 11,7 C 69 % 995,9 hPa 0,0 l/m 2 min 0 min 482 W/m 38,6 km/h (5 Bft) 93,62 %
21.10.2023 14:28 16,3 C 16,1 C 11,7 C 70 % 995,9 hPa 0,0 l/m 2 min 0 min 483 W/m 35,4 km/h (5 Bft) 93,48 %
21.10.2023 14:30 16,4 C 16,1 C 11,7 C 69 % 995,8 hPa 0,0 l/m 2 min 0 min 490 W/m 19,3 km/h (3 Bft) 95,74 %
21.10.2023 14:32 16,4 C 16,1 C 11,7 C 70 % 995,8 hPa 0,0 l/m 2 min 0 min 495 W/m 38,6 km/h (5 Bft) 95,74 %
21.10.2023 14:34 16,5 C 16,1 C 12,2 C 71 % 995,8 hPa 0,0 l/m 2 min 0 min 495 W/m 19,3 km/h (3 Bft) 97,87 %
21.10.2023 14:36 16,5 C 16,1 C 11,7 C 70 % 995,8 hPa 0,0 l/m 2 min 0 min 334 W/m 45,1 km/h (6 Bft) 93,62 %
21.10.2023 14:38 16,4 C 16,1 C 11,7 C 69 % 995,8 hPa 0,0 l/m 0 min 0 min 95 W/m 25,7 km/h (4 Bft) 95,74 %
21.10.2023 14:40 16,4 C 15,6 C 11,7 C 69 % 995,8 hPa 0,0 l/m 0 min 0 min 117 W/m 19,3 km/h (3 Bft) 95,74 %
21.10.2023 14:42 16,3 C 15,6 C 11,7 C 69 % 995,9 hPa 0,0 l/m 0 min 0 min 114 W/m 32,2 km/h (5 Bft) 97,87 %
21.10.2023 14:44 16,2 C 15,6 C 11,7 C 69 % 995,9 hPa 0,0 l/m 0 min 0 min 107 W/m 25,7 km/h (4 Bft) 95,74 %
21.10.2023 14:46 16,1 C 15,6 C 11,7 C 70 % 995,9 hPa 0,0 l/m 0 min 0 min 117 W/m 38,6 km/h (5 Bft) 96,23 %
21.10.2023 14:48 16,1 C 15,6 C 11,7 C 69 % 996,0 hPa 0,0 l/m 0 min 0 min 164 W/m 41,8 km/h (6 Bft) 95,74 %
21.10.2023 14:50 16,1 C 15,6 C 11,7 C 70 % 996,0 hPa 0,0 l/m 2 min 0 min 405 W/m 32,2 km/h (5 Bft) 97,87 %
21.10.2023 14:52 16,1 C 16,1 C 11,7 C 69 % 995,8 hPa 0,0 l/m 2 min 0 min 545 W/m 45,1 km/h (6 Bft) 100,00 %
21.10.2023 14:54 16,2 C 16,1 C 11,7 C 69 % 995,7 hPa 0,0 l/m 2 min 0 min 467 W/m 16,1 km/h (3 Bft) 100,00 %
21.10.2023 14:56 16,2 C 16,1 C 11,7 C 70 % 995,8 hPa 0,0 l/m 2 min 0 min 448 W/m 25,7 km/h (4 Bft) 100,00 %
21.10.2023 14:58 16,2 C 15,6 C 11,7 C 69 % 995,9 hPa 0,0 l/m 2 min 0 min 446 W/m 41,8 km/h (6 Bft) 95,92 %
21.10.2023 15:00 16,3 C 15,6 C 11,7 C 70 % 995,8 hPa 0,0 l/m 2 min 0 min 443 W/m 16,1 km/h (3 Bft) 97,87 %
21.10.2023 15:02 16,3 C 15,6 C 11,7 C 70 % 995,8 hPa 0,0 l/m 2 min 0 min 441 W/m 22,5 km/h (4 Bft) 100,00 %
21.10.2023 15:04 16,3 C 16,1 C 11,7 C 70 % 995,8 hPa 0,0 l/m 2 min 0 min 445 W/m 29,0 km/h (5 Bft) 100,00 %
21.10.2023 15:06 16,4 C 16,1 C 11,7 C 70 % 995,8 hPa 0,0 l/m 2 min 0 min 445 W/m 19,3 km/h (3 Bft) 97,22 %
21.10.2023 15:08 16,4 C 16,1 C 11,7 C 70 % 995,9 hPa 0,0 l/m 2 min 0 min 445 W/m 22,5 km/h (4 Bft) 96,15 %
21.10.2023 15:10 16,4 C 16,1 C 11,7 C 70 % 995,8 hPa 0,0 l/m 2 min 0 min 416 W/m 25,7 km/h (4 Bft) 97,87 %
21.10.2023 15:12 16,5 C 16,1 C 12,2 C 68 % 995,9 hPa 0,0 l/m 2 min 0 min 426 W/m 38,6 km/h (5 Bft) 97,56 %
21.10.2023 15:14 16,5 C 16,1 C 11,7 C 68 % 995,8 hPa 0,0 l/m 2 min 0 min 423 W/m 25,7 km/h (4 Bft) 100,00 %
21.10.2023 15:16 16,6 C 16,1 C 12,2 C 68 % 995,8 hPa 0,0 l/m 2 min 0 min 412 W/m 35,4 km/h (5 Bft) 95,74 %
21.10.2023 15:18 16,6 C 16,1 C 12,2 C 68 % 995,8 hPa 0,0 l/m 2 min 0 min 411 W/m 16,1 km/h (3 Bft) 100,00 %
21.10.2023 15:20 16,6 C 16,1 C 12,2 C 68 % 995,8 hPa 0,0 l/m 2 min 0 min 388 W/m 32,2 km/h (5 Bft) 91,49 %
21.10.2023 15:22 16,6 C 16,1 C 12,2 C 68 % 995,7 hPa 0,0 l/m 2 min 0 min 408 W/m 41,8 km/h (6 Bft) 97,87 %
21.10.2023 15:24 16,6 C 16,1 C 12,2 C 67 % 995,9 hPa 0,0 l/m 2 min 0 min 399 W/m 38,6 km/h (5 Bft) 97,87 %
21.10.2023 15:26 16,6 C 16,1 C 12,2 C 67 % 995,8 hPa 0,0 l/m 2 min 0 min 396 W/m 22,5 km/h (4 Bft) 91,30 %
21.10.2023 15:28 16,6 C 16,1 C 12,2 C 67 % 995,8 hPa 0,0 l/m 2 min 0 min 399 W/m 22,5 km/h (4 Bft) 89,36 %
21.10.2023 15:30 16,6 C 16,1 C 12,2 C 68 % 995,9 hPa 0,0 l/m 2 min 0 min 364 W/m 35,4 km/h (5 Bft) 100,00 %
21.10.2023 15:32 16,5 C 15,6 C 11,7 C 67 % 995,9 hPa 0,0 l/m 0 min 0 min 80 W/m 45,1 km/h (6 Bft) 93,62 %
21.10.2023 15:34 16,4 C 15,6 C 11,7 C 67 % 996,0 hPa 0,0 l/m 2 min 0 min 200 W/m 32,2 km/h (5 Bft) 95,74 %
21.10.2023 15:36 16,3 C 15,6 C 11,7 C 68 % 996,0 hPa 0,0 l/m 2 min 0 min 414 W/m 25,7 km/h (4 Bft) 91,49 %
21.10.2023 15:38 16,3 C 15,6 C 11,7 C 68 % 996,0 hPa 0,0 l/m 2 min 0 min 312 W/m 35,4 km/h (5 Bft) 100,00 %
21.10.2023 15:40 16,3 C 15,6 C 11,7 C 68 % 996,0 hPa 0,0 l/m 2 min 0 min 286 W/m 35,4 km/h (5 Bft) 100,00 %
21.10.2023 15:42 16,4 C 16,1 C 11,7 C 69 % 996,0 hPa 0,0 l/m 2 min 0 min 303 W/m 57,9 km/h (7 Bft) 98,11 %
21.10.2023 15:44 16,4 C 16,1 C 11,7 C 68 % 996,1 hPa 0,0 l/m 2 min 0 min 333 W/m 32,2 km/h (5 Bft) 97,87 %
21.10.2023 15:46 16,4 C 16,1 C 11,7 C 68 % 996,3 hPa 0,0 l/m 2 min 0 min 350 W/m 29,0 km/h (5 Bft) 97,87 %
21.10.2023 15:48 16,4 C 16,1 C 11,7 C 68 % 996,3 hPa 0,0 l/m 2 min 0 min 343 W/m 57,9 km/h (7 Bft) 100,00 %
21.10.2023 15:50 16,4 C 16,1 C 11,7 C 68 % 996,1 hPa 0,0 l/m 2 min 0 min 336 W/m 48,3 km/h (6 Bft) 100,00 %
21.10.2023 15:52 16,4 C 16,1 C 11,7 C 68 % 996,2 hPa 0,0 l/m 2 min 0 min 341 W/m 22,5 km/h (4 Bft) 97,87 %
21.10.2023 15:54 16,4 C 16,1 C 11,7 C 68 % 996,2 hPa 0,0 l/m 2 min 0 min 310 W/m 22,5 km/h (4 Bft) 95,83 %
21.10.2023 15:56 16,4 C 16,1 C 11,7 C 69 % 996,3 hPa 0,0 l/m 2 min 0 min 344 W/m 25,7 km/h (4 Bft) 97,87 %
21.10.2023 15:58 16,4 C 16,1 C 11,7 C 69 % 996,3 hPa 0,0 l/m 2 min 0 min 347 W/m 22,5 km/h (4 Bft) 97,87 %
21.10.2023 16:00 16,4 C 16,1 C 11,7 C 69 % 996,2 hPa 0,0 l/m 2 min 0 min 269 W/m 41,8 km/h (6 Bft) 97,87 %
21.10.2023 16:02 16,4 C 16,1 C 11,7 C 68 % 996,3 hPa 0,0 l/m 2 min 0 min 261 W/m 22,5 km/h (4 Bft) 97,87 %
21.10.2023 16:04 16,4 C 16,1 C 11,7 C 68 % 996,3 hPa 0,0 l/m 2 min 0 min 282 W/m 25,7 km/h (4 Bft) 95,74 %
21.10.2023 16:10 16,4 C 15,6 C 11,7 C 69 % 996,3 hPa 0,0 l/m 5 min 0 min 246 W/m 25,7 km/h (4 Bft) 97,16 %
21.10.2023 16:12 16,4 C 15,6 C 11,7 C 68 % 996,4 hPa 0,0 l/m 2 min 0 min 297 W/m 41,8 km/h (6 Bft) 95,74 %
21.10.2023 16:14 16,4 C 15,6 C 11,7 C 68 % 996,4 hPa 0,0 l/m 2 min 0 min 293 W/m 16,1 km/h (3 Bft) 95,74 %
21.10.2023 16:16 16,4 C 15,6 C 11,7 C 68 % 996,3 hPa 0,0 l/m 2 min 0 min 288 W/m 22,5 km/h (4 Bft) 95,74 %
21.10.2023 16:18 16,4 C 15,6 C 11,7 C 68 % 996,4 hPa 0,0 l/m 2 min 0 min 281 W/m 19,3 km/h (3 Bft) 95,74 %
21.10.2023 16:20 16,4 C 15,6 C 11,7 C 69 % 996,3 hPa 0,0 l/m 2 min 0 min 261 W/m 16,1 km/h (3 Bft) 93,62 %
21.10.2023 16:22 16,4 C 15,6 C 11,7 C 69 % 996,3 hPa 0,0 l/m 2 min 0 min 207 W/m 29,0 km/h (5 Bft) 95,74 %
21.10.2023 16:24 16,4 C 15,6 C 11,7 C 69 % 996,3 hPa 0,0 l/m 2 min 0 min 195 W/m 45,1 km/h (6 Bft) 93,62 %
21.10.2023 16:26 16,4 C 15,6 C 11,7 C 69 % 996,4 hPa 0,0 l/m 2 min 0 min 249 W/m 22,5 km/h (4 Bft) 95,74 %
21.10.2023 16:28 16,4 C 15,6 C 11,7 C 69 % 996,4 hPa 0,0 l/m 2 min 0 min 246 W/m 6,4 km/h (2 Bft) 95,65 %
21.10.2023 16:30 16,4 C 15,6 C 11,7 C 69 % 996,4 hPa 0,0 l/m 2 min 0 min 236 W/m 22,5 km/h (4 Bft) 97,87 %
21.10.2023 16:32 16,4 C 15,6 C 11,7 C 69 % 996,5 hPa 0,0 l/m 2 min 0 min 223 W/m 35,4 km/h (5 Bft) 95,74 %
21.10.2023 16:34 16,4 C 15,6 C 11,7 C 68 % 996,5 hPa 0,0 l/m 2 min 0 min 197 W/m 19,3 km/h (3 Bft) 95,74 %
21.10.2023 16:36 16,3 C 15,6 C 11,7 C 68 % 996,4 hPa 0,0 l/m 0 min 0 min 125 W/m 22,5 km/h (4 Bft) 95,74 %
21.10.2023 16:38 16,3 C 15,6 C 11,7 C 68 % 996,3 hPa 0,0 l/m 2 min 0 min 144 W/m 16,1 km/h (3 Bft) 97,56 %
21.10.2023 16:40 16,3 C 15,6 C 11,7 C 68 % 996,4 hPa 0,0 l/m 2 min 0 min 124 W/m 19,3 km/h (3 Bft) 94,00 %
21.10.2023 16:42 16,3 C 15,6 C 11,7 C 68 % 996,4 hPa 0,0 l/m 2 min 0 min 200 W/m 16,1 km/h (3 Bft) 97,87 %
21.10.2023 16:44 16,3 C 15,6 C 11,1 C 69 % 996,5 hPa 0,0 l/m 0 min 0 min 50 W/m 16,1 km/h (3 Bft) 93,62 %
21.10.2023 16:46 16,2 C 15,6 C 11,1 C 69 % 996,5 hPa 0,0 l/m 0 min 0 min 44 W/m 29,0 km/h (5 Bft) 94,00 %
21.10.2023 16:48 16,2 C 15,0 C 11,1 C 69 % 996,6 hPa 0,0 l/m 0 min 0 min 72 W/m 12,9 km/h (3 Bft) 97,87 %
21.10.2023 16:50 16,1 C 15,0 C 11,1 C 68 % 996,6 hPa 0,0 l/m 0 min 0 min 55 W/m 29,0 km/h (5 Bft) 97,14 %
21.10.2023 16:52 16,1 C 15,0 C 11,1 C 69 % 996,6 hPa 0,0 l/m 0 min 0 min 102 W/m 19,3 km/h (3 Bft) 96,23 %
21.10.2023 16:54 16,1 C 15,0 C 11,1 C 69 % 996,6 hPa 0,0 l/m 0 min 0 min 90 W/m 32,2 km/h (5 Bft) 95,65 %
21.10.2023 16:56 16,1 C 15,6 C 11,1 C 69 % 996,8 hPa 0,0 l/m 2 min 0 min 119 W/m 25,7 km/h (4 Bft) 97,87 %
21.10.2023 16:58 16,0 C 15,6 C 11,1 C 69 % 996,7 hPa 0,0 l/m 0 min 0 min 76 W/m 19,3 km/h (3 Bft) 95,74 %
21.10.2023 17:00 16,0 C 15,0 C 11,1 C 70 % 996,7 hPa 0,0 l/m 0 min 0 min 52 W/m 16,1 km/h (3 Bft) 95,74 %
21.10.2023 17:02 16,0 C 15,0 C 11,1 C 70 % 996,8 hPa 0,0 l/m 0 min 0 min 42 W/m 12,9 km/h (3 Bft) 97,87 %
21.10.2023 17:04 15,9 C 15,0 C 11,1 C 70 % 996,7 hPa 0,0 l/m 0 min 0 min 52 W/m 22,5 km/h (4 Bft) 97,87 %
21.10.2023 17:06 15,9 C 15,0 C 11,1 C 71 % 996,7 hPa 0,0 l/m 0 min 0 min 57 W/m 12,9 km/h (3 Bft) 95,83 %
21.10.2023 17:08 15,9 C 15,0 C 11,1 C 71 % 996,7 hPa 0,0 l/m 0 min 0 min 57 W/m 9,7 km/h (2 Bft) 95,83 %
21.10.2023 17:10 15,9 C 15,0 C 11,1 C 71 % 996,8 hPa 0,0 l/m 0 min 0 min 53 W/m 16,1 km/h (3 Bft) 61,70 %
21.10.2023 17:12 15,8 C 15,0 C 11,1 C 71 % 996,8 hPa 0,0 l/m 0 min 0 min 54 W/m 19,3 km/h (3 Bft) 85,71 %
21.10.2023 17:14 15,8 C 15,0 C 11,1 C 71 % 996,7 hPa 0,0 l/m 0 min 0 min 57 W/m 19,3 km/h (3 Bft) 98,00 %
21.10.2023 17:16 15,8 C 15,0 C 11,1 C 71 % 996,8 hPa 0,0 l/m 0 min 0 min 54 W/m 22,5 km/h (4 Bft) 97,87 %
21.10.2023 17:18 15,8 C 15,0 C 11,1 C 71 % 996,8 hPa 0,0 l/m 0 min 0 min 52 W/m 32,2 km/h (5 Bft) 97,87 %
21.10.2023 17:20 15,8 C 15,0 C 11,1 C 71 % 996,7 hPa 0,0 l/m 0 min 0 min 47 W/m 16,1 km/h (3 Bft) 95,74 %
21.10.2023 17:22 15,8 C 15,0 C 11,1 C 70 % 996,8 hPa 0,0 l/m 0 min 0 min 47 W/m 19,3 km/h (3 Bft) 97,87 %
21.10.2023 17:24 15,8 C 15,0 C 11,1 C 70 % 996,7 hPa 0,0 l/m 0 min 0 min 53 W/m 9,7 km/h (2 Bft) 100,00 %
21.10.2023 17:26 15,8 C 15,0 C 11,1 C 70 % 996,8 hPa 0,0 l/m 0 min 0 min 55 W/m 16,1 km/h (3 Bft) 100,00 %
21.10.2023 17:28 15,8 C 15,6 C 11,1 C 70 % 996,8 hPa 0,0 l/m 0 min 0 min 61 W/m 16,1 km/h (3 Bft) 100,00 %
21.10.2023 17:30 15,8 C 15,6 C 11,1 C 70 % 996,8 hPa 0,0 l/m 0 min 0 min 65 W/m 12,9 km/h (3 Bft) 100,00 %
21.10.2023 17:32 15,9 C 15,6 C 11,1 C 70 % 996,8 hPa 0,0 l/m 2 min 0 min 65 W/m 12,9 km/h (3 Bft) 97,87 %
21.10.2023 17:34 15,9 C 15,6 C 11,1 C 70 % 996,8 hPa 0,0 l/m 0 min 0 min 49 W/m 19,3 km/h (3 Bft) 100,00 %
21.10.2023 17:36 15,9 C 15,6 C 11,1 C 70 % 996,9 hPa 0,0 l/m 0 min 0 min 45 W/m 16,1 km/h (3 Bft) 100,00 %
21.10.2023 17:38 15,9 C 15,6 C 11,1 C 70 % 996,9 hPa 0,0 l/m 0 min 0 min 46 W/m 16,1 km/h (3 Bft) 100,00 %
21.10.2023 17:40 15,9 C 15,6 C 11,1 C 70 % 997,0 hPa 0,0 l/m 0 min 0 min 43 W/m 16,1 km/h (3 Bft) 97,87 %
21.10.2023 17:42 15,9 C 15,0 C 11,1 C 70 % 996,8 hPa 0,0 l/m 0 min 0 min 38 W/m 6,4 km/h (2 Bft) 97,87 %
21.10.2023 17:44 15,9 C 15,0 C 11,1 C 71 % 996,9 hPa 0,0 l/m 0 min 0 min 35 W/m 19,3 km/h (3 Bft) 100,00 %
21.10.2023 17:46 15,9 C 15,0 C 11,1 C 71 % 996,9 hPa 0,0 l/m 0 min 0 min 32 W/m 22,5 km/h (4 Bft) 97,87 %
21.10.2023 17:48 15,8 C 15,0 C 11,1 C 71 % 996,9 hPa 0,0 l/m 0 min 0 min 27 W/m 25,7 km/h (4 Bft) 100,00 %
21.10.2023 17:50 15,8 C 15,0 C 11,1 C 71 % 996,8 hPa 0,0 l/m 0 min 0 min 23 W/m 16,1 km/h (3 Bft) 100,00 %
21.10.2023 17:52 15,7 C 15,0 C 11,1 C 71 % 996,9 hPa 0,0 l/m 0 min 0 min 20 W/m 19,3 km/h (3 Bft) 100,00 %
21.10.2023 17:54 15,7 C 14,4 C 10,6 C 71 % 996,9 hPa 0,0 l/m 0 min 0 min 17 W/m 6,4 km/h (2 Bft) 97,83 %
21.10.2023 17:56 15,7 C 14,4 C 10,6 C 71 % 996,9 hPa 0,0 l/m 0 min 0 min 16 W/m 16,1 km/h (3 Bft) 97,87 %
21.10.2023 17:58 15,6 C 14,4 C 10,6 C 71 % 996,9 hPa 0,0 l/m 0 min 0 min 13 W/m 19,3 km/h (3 Bft) 97,67 %
21.10.2023 18:00 15,6 C 14,4 C 10,6 C 71 % 997,0 hPa 0,0 l/m 0 min 0 min 12 W/m 12,9 km/h (3 Bft) 97,87 %
21.10.2023 18:02 15,6 C 14,4 C 10,6 C 71 % 997,0 hPa 0,0 l/m 0 min 0 min 12 W/m 6,4 km/h (2 Bft) 97,87 %
21.10.2023 18:04 15,6 C 14,4 C 10,6 C 72 % 997,0 hPa 0,0 l/m 0 min 0 min 11 W/m 6,4 km/h (2 Bft) 97,87 %
21.10.2023 18:08 15,5 C 14,4 C 10,6 C 72 % 997,1 hPa 0,0 l/m 0 min 0 min 9 W/m 12,9 km/h (3 Bft) 96,08 %
21.10.2023 18:10 15,4 C 14,4 C 10,6 C 72 % 997,1 hPa 0,0 l/m 0 min 0 min 7 W/m 9,7 km/h (2 Bft) 97,87 %
21.10.2023 18:12 15,4 C 13,9 C 10,6 C 73 % 997,2 hPa 0,0 l/m 0 min 0 min 7 W/m 12,9 km/h (3 Bft) 97,83 %
21.10.2023 18:16 15,3 C 14,4 C 10,6 C 73 % 997,2 hPa 0,0 l/m 0 min 0 min 6 W/m 16,1 km/h (3 Bft) 97,87 %
21.10.2023 18:18 15,2 C 14,4 C 10,6 C 73 % 997,2 hPa 0,0 l/m 0 min 0 min 5 W/m 9,7 km/h (2 Bft) 97,87 %
21.10.2023 18:20 15,2 C 13,9 C 10,6 C 73 % 997,2 hPa 0,0 l/m 0 min 0 min 5 W/m 12,9 km/h (3 Bft) 97,87 %
21.10.2023 18:22 15,2 C 13,9 C 10,6 C 73 % 997,3 hPa 0,0 l/m 0 min 0 min 5 W/m 12,9 km/h (3 Bft) 97,87 %
21.10.2023 18:24 15,1 C 13,9 C 10,0 C 73 % 997,3 hPa 0,0 l/m 0 min 0 min 1 W/m 16,1 km/h (3 Bft) 97,87 %
21.10.2023 18:26 15,1 C 13,9 C 10,0 C 73 % 997,3 hPa 0,0 l/m 0 min 0 min 0 W/m 12,9 km/h (3 Bft) 97,87 %
21.10.2023 18:28 15,1 C 13,9 C 10,0 C 73 % 997,3 hPa 0,0 l/m 0 min 0 min 0 W/m 16,1 km/h (3 Bft) 97,87 %
21.10.2023 18:30 15,0 C 13,9 C 10,0 C 73 % 997,2 hPa 0,0 l/m 0 min 0 min 0 W/m 12,9 km/h (3 Bft) 100,00 %
21.10.2023 18:32 15,0 C 13,9 C 10,0 C 74 % 997,3 hPa 0,0 l/m 0 min 0 min 0 W/m 16,1 km/h (3 Bft) 100,00 %
21.10.2023 18:34 15,0 C 13,9 C 10,0 C 74 % 997,3 hPa 0,0 l/m 0 min 0 min 0 W/m 6,4 km/h (2 Bft) 100,00 %
21.10.2023 18:36 14,9 C 13,9 C 10,0 C 74 % 997,4 hPa 0,0 l/m 0 min 0 min 0 W/m 19,3 km/h (3 Bft) 100,00 %
21.10.2023 18:38 14,9 C 13,9 C 10,0 C 74 % 997,4 hPa 0,0 l/m 0 min 0 min 0 W/m 6,4 km/h (2 Bft) 97,96 %
21.10.2023 18:40 14,9 C 13,9 C 10,0 C 74 % 997,4 hPa 0,0 l/m 0 min 0 min 0 W/m 6,4 km/h (2 Bft) 97,87 %
21.10.2023 18:42 14,9 C 13,9 C 10,0 C 75 % 997,4 hPa 0,0 l/m 0 min 0 min 0 W/m 6,4 km/h (2 Bft) 100,00 %
21.10.2023 18:44 14,9 C 13,9 C 10,0 C 75 % 997,4 hPa 0,0 l/m 0 min 0 min 0 W/m 12,9 km/h (3 Bft) 100,00 %
21.10.2023 18:46 14,9 C 13,9 C 10,0 C 75 % 997,4 hPa 0,0 l/m 0 min 0 min 0 W/m 16,1 km/h (3 Bft) 100,00 %
21.10.2023 18:48 14,8 C 13,9 C 10,0 C 75 % 997,5 hPa 0,0 l/m 0 min 0 min 0 W/m 6,4 km/h (2 Bft) 97,87 %
21.10.2023 18:50 14,8 C 13,9 C 10,0 C 75 % 997,5 hPa 0,0 l/m 0 min 0 min 0 W/m 12,9 km/h (3 Bft) 97,87 %
21.10.2023 18:52 14,8 C 13,9 C 10,0 C 75 % 997,6 hPa 0,0 l/m 0 min 0 min 0 W/m 16,1 km/h (3 Bft) 95,74 %
21.10.2023 18:54 14,8 C 13,9 C 10,0 C 75 % 997,6 hPa 0,0 l/m 0 min 0 min 0 W/m 9,7 km/h (2 Bft) 95,74 %
21.10.2023 18:56 14,8 C 13,9 C 10,0 C 75 % 997,6 hPa 0,0 l/m 0 min 0 min 0 W/m 12,9 km/h (3 Bft) 93,62 %
21.10.2023 18:58 14,8 C 13,9 C 10,0 C 75 % 997,6 hPa 0,0 l/m 0 min 0 min 0 W/m 12,9 km/h (3 Bft) 97,83 %
21.10.2023 19:00 14,8 C 13,9 C 10,0 C 75 % 997,6 hPa 0,0 l/m 0 min 0 min 0 W/m 9,7 km/h (2 Bft) 97,87 %
21.10.2023 19:02 14,8 C 13,9 C 10,0 C 75 % 997,7 hPa 0,0 l/m 0 min 0 min 0 W/m 12,9 km/h (3 Bft) 95,74 %
21.10.2023 19:04 14,8 C 13,9 C 10,0 C 75 % 997,7 hPa 0,0 l/m 0 min 0 min 0 W/m 12,9 km/h (3 Bft) 95,92 %
21.10.2023 19:06 14,8 C 13,9 C 10,0 C 75 % 997,7 hPa 0,0 l/m 0 min 0 min 0 W/m 12,9 km/h (3 Bft) 97,92 %
21.10.2023 19:08 14,7 C 13,9 C 10,0 C 75 % 997,8 hPa 0,0 l/m 0 min 0 min 0 W/m 12,9 km/h (3 Bft) 93,62 %
21.10.2023 19:10 14,8 C 13,9 C 10,0 C 75 % 997,8 hPa 0,0 l/m 0 min 0 min 0 W/m 22,5 km/h (4 Bft) 95,74 %
21.10.2023 19:12 14,7 C 13,9 C 10,0 C 76 % 997,9 hPa 0,0 l/m 0 min 0 min 0 W/m 16,1 km/h (3 Bft) 93,62 %
21.10.2023 19:14 14,7 C 13,9 C 10,0 C 76 % 997,9 hPa 0,0 l/m 0 min 0 min 0 W/m 16,1 km/h (3 Bft) 95,74 %
21.10.2023 19:16 14,7 C 13,9 C 10,0 C 76 % 997,9 hPa 0,0 l/m 0 min 0 min 0 W/m 12,9 km/h (3 Bft) 95,65 %
21.10.2023 19:18 14,7 C 13,9 C 10,0 C 76 % 997,9 hPa 0,0 l/m 0 min 0 min 0 W/m 12,9 km/h (3 Bft) 95,74 %
21.10.2023 19:20 14,7 C 13,9 C 10,0 C 76 % 997,9 hPa 0,0 l/m 0 min 0 min 0 W/m 12,9 km/h (3 Bft) 95,74 %
21.10.2023 19:22 14,7 C 13,9 C 10,0 C 76 % 997,9 hPa 0,0 l/m 0 min 0 min 0 W/m 22,5 km/h (4 Bft) 95,74 %
21.10.2023 19:24 14,7 C 13,9 C 10,0 C 75 % 998,0 hPa 0,0 l/m 0 min 0 min 0 W/m 19,3 km/h (3 Bft) 95,74 %
21.10.2023 19:26 14,7 C 13,9 C 10,0 C 75 % 997,9 hPa 0,0 l/m 0 min 0 min 0 W/m 25,7 km/h (4 Bft) 95,74 %
21.10.2023 19:28 14,7 C 13,9 C 10,0 C 75 % 998,0 hPa 0,0 l/m 0 min 0 min 0 W/m 12,9 km/h (3 Bft) 95,74 %
21.10.2023 19:30 14,7 C 13,9 C 10,0 C 75 % 998,0 hPa 0,0 l/m 0 min 0 min 0 W/m 12,9 km/h (3 Bft) 89,36 %
21.10.2023 19:32 14,7 C 13,9 C 10,0 C 75 % 997,9 hPa 0,0 l/m 0 min 0 min 0 W/m 12,9 km/h (3 Bft) 95,74 %
21.10.2023 19:34 14,7 C 13,9 C 10,0 C 75 % 998,0 hPa 0,0 l/m 0 min 0 min 0 W/m 19,3 km/h (3 Bft) 95,74 %
21.10.2023 19:36 14,7 C 13,9 C 10,0 C 75 % 998,0 hPa 0,0 l/m 0 min 0 min 0 W/m 12,9 km/h (3 Bft) 95,74 %
21.10.2023 19:38 14,7 C 13,9 C 10,0 C 75 % 998,0 hPa 0,0 l/m 0 min 0 min 0 W/m 6,4 km/h (2 Bft) 97,83 %
21.10.2023 19:40 14,7 C 13,9 C 10,0 C 75 % 997,9 hPa 0,0 l/m 0 min 0 min 0 W/m 19,3 km/h (3 Bft) 95,74 %
21.10.2023 19:42 14,7 C 13,9 C 10,0 C 75 % 997,9 hPa 0,0 l/m 0 min 0 min 0 W/m 16,1 km/h (3 Bft) 97,87 %
21.10.2023 19:44 14,7 C 13,9 C 10,0 C 75 % 998,0 hPa 0,0 l/m 0 min 0 min 0 W/m 12,9 km/h (3 Bft) 97,87 %
21.10.2023 19:46 14,7 C 13,9 C 10,0 C 75 % 998,0 hPa 0,0 l/m 0 min 0 min 0 W/m 16,1 km/h (3 Bft) 97,87 %
21.10.2023 19:48 14,7 C 13,9 C 10,0 C 75 % 998,0 hPa 0,0 l/m 0 min 0 min 0 W/m 12,9 km/h (3 Bft) 95,74 %
21.10.2023 19:50 14,7 C 13,9 C 10,0 C 75 % 998,0 hPa 0,0 l/m 0 min 0 min 0 W/m 16,1 km/h (3 Bft) 95,74 %
21.10.2023 19:52 14,7 C 13,9 C 10,0 C 75 % 998,1 hPa 0,0 l/m 0 min 0 min 0 W/m 19,3 km/h (3 Bft) 95,74 %
21.10.2023 19:54 14,7 C 13,9 C 10,0 C 75 % 998,1 hPa 0,0 l/m 0 min 0 min 0 W/m 16,1 km/h (3 Bft) 94,74 %
21.10.2023 19:56 14,7 C 13,9 C 10,0 C 76 % 998,1 hPa 0,0 l/m 0 min 0 min 0 W/m 16,1 km/h (3 Bft) 93,62 %
21.10.2023 19:58 14,7 C 13,9 C 10,0 C 76 % 998,0 hPa 0,0 l/m 0 min 0 min 0 W/m 12,9 km/h (3 Bft) 97,87 %
21.10.2023 20:00 14,7 C 13,9 C 10,0 C 76 % 998,1 hPa 0,0 l/m 0 min 0 min 0 W/m 12,9 km/h (3 Bft) 97,87 %
21.10.2023 20:02 14,6 C 13,9 C 10,0 C 76 % 998,1 hPa 0,0 l/m 0 min 0 min 0 W/m 12,9 km/h (3 Bft) 97,87 %
21.10.2023 20:04 14,6 C 13,9 C 10,0 C 76 % 998,1 hPa 0,0 l/m 0 min 0 min 0 W/m 12,9 km/h (3 Bft) 97,73 %
21.10.2023 20:10 14,6 C 13,3 C 10,0 C 77 % 998,1 hPa 0,0 l/m 0 min 0 min 0 W/m 19,3 km/h (3 Bft) 96,60 %
21.10.2023 20:12 14,5 C 13,3 C 10,0 C 77 % 998,1 hPa 0,0 l/m 0 min 0 min 0 W/m 16,1 km/h (3 Bft) 97,87 %
21.10.2023 20:14 14,5 C 13,3 C 10,0 C 77 % 998,2 hPa 0,0 l/m 0 min 0 min 0 W/m 16,1 km/h (3 Bft) 97,87 %
21.10.2023 20:16 14,4 C 13,3 C 10,0 C 77 % 998,2 hPa 0,0 l/m 0 min 0 min 0 W/m 16,1 km/h (3 Bft) 97,87 %
21.10.2023 20:18 14,4 C 13,3 C 10,0 C 77 % 998,2 hPa 0,0 l/m 0 min 0 min 0 W/m 12,9 km/h (3 Bft) 97,87 %
21.10.2023 20:20 14,4 C 13,3 C 10,0 C 78 % 998,2 hPa 0,0 l/m 0 min 0 min 0 W/m 16,1 km/h (3 Bft) 97,83 %
21.10.2023 20:22 14,3 C 13,3 C 10,0 C 78 % 998,2 hPa 0,0 l/m 0 min 0 min 0 W/m 12,9 km/h (3 Bft) 95,74 %
21.10.2023 20:24 14,3 C 13,3 C 10,0 C 78 % 998,2 hPa 0,0 l/m 0 min 0 min 0 W/m 16,1 km/h (3 Bft) 100,00 %
21.10.2023 20:26 14,3 C 13,3 C 10,0 C 78 % 998,2 hPa 0,0 l/m 0 min 0 min 0 W/m 6,4 km/h (2 Bft) 100,00 %
21.10.2023 20:28 14,3 C 13,3 C 10,0 C 78 % 998,3 hPa 0,0 l/m 0 min 0 min 0 W/m 12,9 km/h (3 Bft) 97,87 %
21.10.2023 20:30 14,3 C 13,3 C 10,0 C 78 % 998,3 hPa 0,0 l/m 0 min 0 min 0 W/m 16,1 km/h (3 Bft) 97,87 %
21.10.2023 20:32 14,3 C 13,3 C 10,0 C 78 % 998,2 hPa 0,0 l/m 0 min 0 min 0 W/m 12,9 km/h (3 Bft) 100,00 %
21.10.2023 20:34 14,3 C 13,3 C 10,0 C 78 % 998,2 hPa 0,0 l/m 0 min 0 min 0 W/m 12,9 km/h (3 Bft) 100,00 %
21.10.2023 20:36 14,3 C 13,3 C 10,0 C 78 % 998,2 hPa 0,0 l/m 0 min 0 min 0 W/m 12,9 km/h (3 Bft) 97,87 %
21.10.2023 20:38 14,3 C 13,3 C 10,0 C 78 % 998,2 hPa 0,0 l/m 0 min 0 min 0 W/m 12,9 km/h (3 Bft) 100,00 %
21.10.2023 20:40 14,3 C 13,9 C 10,0 C 78 % 998,3 hPa 0,0 l/m 0 min 0 min 0 W/m 16,1 km/h (3 Bft) 100,00 %
21.10.2023 20:42 14,3 C 13,9 C 10,0 C 78 % 998,2 hPa 0,0 l/m 0 min 0 min 0 W/m 22,5 km/h (4 Bft) 100,00 %
21.10.2023 20:44 14,3 C 13,9 C 10,0 C 77 % 998,2 hPa 0,0 l/m 0 min 0 min 0 W/m 16,1 km/h (3 Bft) 100,00 %
21.10.2023 20:46 14,3 C 13,9 C 10,0 C 78 % 998,3 hPa 0,0 l/m 0 min 0 min 0 W/m 16,1 km/h (3 Bft) 100,00 %
21.10.2023 20:48 14,3 C 13,9 C 10,0 C 77 % 998,3 hPa 0,0 l/m 0 min 0 min 0 W/m 12,9 km/h (3 Bft) 100,00 %
21.10.2023 20:50 14,3 C 13,9 C 10,0 C 78 % 998,3 hPa 0,0 l/m 0 min 0 min 0 W/m 6,4 km/h (2 Bft) 100,00 %
21.10.2023 20:52 14,3 C 13,9 C 10,0 C 78 % 998,2 hPa 0,0 l/m 0 min 0 min 0 W/m 12,9 km/h (3 Bft) 100,00 %
21.10.2023 20:54 14,3 C 13,9 C 10,0 C 78 % 998,3 hPa 0,0 l/m 0 min 0 min 0 W/m 12,9 km/h (3 Bft) 97,87 %
21.10.2023 20:56 14,3 C 13,9 C 10,0 C 78 % 998,3 hPa 0,0 l/m 0 min 0 min 0 W/m 12,9 km/h (3 Bft) 100,00 %
21.10.2023 20:58 14,3 C 13,9 C 10,0 C 78 % 998,3 hPa 0,0 l/m 0 min 0 min 0 W/m 19,3 km/h (3 Bft) 100,00 %
21.10.2023 21:00 14,3 C 13,9 C 10,0 C 78 % 998,3 hPa 0,0 l/m 0 min 0 min 0 W/m 19,3 km/h (3 Bft) 100,00 %
21.10.2023 21:02 14,3 C 13,9 C 10,0 C 78 % 998,3 hPa 0,0 l/m 0 min 0 min 0 W/m 16,1 km/h (3 Bft) 97,87 %
21.10.2023 21:04 14,3 C 13,3 C 10,0 C 78 % 998,4 hPa 0,0 l/m 0 min 0 min 0 W/m 12,9 km/h (3 Bft) 98,11 %
21.10.2023 21:10 14,3 C 13,9 C 10,0 C 77 % 998,4 hPa 0,0 l/m 0 min 0 min 0 W/m 22,5 km/h (4 Bft) 99,28 %
21.10.2023 21:12 14,3 C 13,9 C 10,0 C 77 % 998,4 hPa 0,0 l/m 0 min 0 min 0 W/m 16,1 km/h (3 Bft) 100,00 %
21.10.2023 21:14 14,3 C 13,3 C 10,0 C 78 % 998,4 hPa 0,0 l/m 0 min 0 min 0 W/m 6,4 km/h (2 Bft) 100,00 %
21.10.2023 21:16 14,3 C 13,3 C 10,0 C 78 % 998,4 hPa 0,0 l/m 0 min 0 min 0 W/m 16,1 km/h (3 Bft) 100,00 %
21.10.2023 21:18 14,3 C 13,3 C 10,0 C 78 % 998,5 hPa 0,0 l/m 0 min 0 min 0 W/m 19,3 km/h (3 Bft) 100,00 %
21.10.2023 21:20 14,3 C 13,3 C 10,0 C 78 % 998,4 hPa 0,0 l/m 0 min 0 min 0 W/m 12,9 km/h (3 Bft) 97,87 %
21.10.2023 21:22 14,3 C 13,3 C 10,0 C 78 % 998,4 hPa 0,0 l/m 0 min 0 min 0 W/m 16,1 km/h (3 Bft) 100,00 %
21.10.2023 21:24 14,3 C 13,3 C 10,0 C 78 % 998,4 hPa 0,0 l/m 0 min 0 min 0 W/m 16,1 km/h (3 Bft) 100,00 %
21.10.2023 21:26 14,3 C 13,3 C 10,0 C 78 % 998,5 hPa 0,0 l/m 0 min 0 min 0 W/m 12,9 km/h (3 Bft) 100,00 %
21.10.2023 21:28 14,3 C 13,3 C 9,4 C 78 % 998,4 hPa 0,0 l/m 0 min 0 min 0 W/m 6,4 km/h (2 Bft) 100,00 %
21.10.2023 21:30 14,3 C 13,3 C 9,4 C 78 % 998,4 hPa 0,0 l/m 0 min 0 min 0 W/m 9,7 km/h (2 Bft) 100,00 %
21.10.2023 21:32 14,3 C 13,3 C 9,4 C 78 % 998,4 hPa 0,0 l/m 0 min 0 min 0 W/m 16,1 km/h (3 Bft) 97,87 %
21.10.2023 21:34 14,3 C 13,3 C 9,4 C 78 % 998,4 hPa 0,0 l/m 0 min 0 min 0 W/m 19,3 km/h (3 Bft) 100,00 %
21.10.2023 21:36 14,3 C 13,3 C 9,4 C 78 % 998,5 hPa 0,0 l/m 0 min 0 min 0 W/m 19,3 km/h (3 Bft) 100,00 %
21.10.2023 21:38 14,3 C 13,3 C 9,4 C 78 % 998,4 hPa 0,0 l/m 0 min 0 min 0 W/m 6,4 km/h (2 Bft) 97,87 %
21.10.2023 21:40 14,3 C 13,3 C 9,4 C 78 % 998,4 hPa 0,0 l/m 0 min 0 min 0 W/m 6,4 km/h (2 Bft) 95,74 %
21.10.2023 21:42 14,3 C 13,3 C 9,4 C 78 % 998,4 hPa 0,0 l/m 0 min 0 min 0 W/m 16,1 km/h (3 Bft) 95,74 %
21.10.2023 21:44 14,2 C 13,3 C 9,4 C 78 % 998,4 hPa 0,0 l/m 0 min 0 min 0 W/m 6,4 km/h (2 Bft) 93,48 %
21.10.2023 21:46 14,2 C 13,3 C 9,4 C 78 % 998,5 hPa 0,0 l/m 0 min 0 min 0 W/m 16,1 km/h (3 Bft) 95,74 %
21.10.2023 21:48 14,2 C 13,3 C 9,4 C 78 % 998,5 hPa 0,0 l/m 0 min 0 min 0 W/m 16,1 km/h (3 Bft) 89,36 %
21.10.2023 21:50 14,2 C 13,3 C 9,4 C 78 % 998,4 hPa 0,0 l/m 0 min 0 min 0 W/m 16,1 km/h (3 Bft) 93,62 %
21.10.2023 21:52 14,2 C 13,3 C 9,4 C 78 % 998,4 hPa 0,0 l/m 0 min 0 min 0 W/m 19,3 km/h (3 Bft) 91,49 %
21.10.2023 21:54 14,2 C 13,3 C 9,4 C 78 % 998,4 hPa 0,0 l/m 0 min 0 min 0 W/m 12,9 km/h (3 Bft) 93,62 %
21.10.2023 21:56 14,1 C 13,3 C 9,4 C 78 % 998,4 hPa 0,0 l/m 0 min 0 min 0 W/m 19,3 km/h (3 Bft) 89,36 %
21.10.2023 21:58 14,1 C 13,3 C 9,4 C 78 % 998,5 hPa 0,0 l/m 0 min 0 min 0 W/m 12,9 km/h (3 Bft) 93,62 %
21.10.2023 22:00 14,1 C 13,3 C 9,4 C 78 % 998,5 hPa 0,0 l/m 0 min 0 min 0 W/m 6,4 km/h (2 Bft) 91,30 %
21.10.2023 22:02 14,1 C 13,3 C 9,4 C 78 % 998,5 hPa 0,0 l/m 0 min 0 min 0 W/m 19,3 km/h (3 Bft) 93,75 %
21.10.2023 22:04 14,1 C 13,3 C 9,4 C 78 % 998,5 hPa 0,0 l/m 0 min 0 min 0 W/m 16,1 km/h (3 Bft) 93,02 %
21.10.2023 22:06 14,1 C 13,3 C 9,4 C 78 % 998,5 hPa 0,0 l/m 0 min 0 min 0 W/m 12,9 km/h (3 Bft) 93,62 %
21.10.2023 22:08 14,1 C 13,3 C 9,4 C 78 % 998,5 hPa 0,0 l/m 0 min 0 min 0 W/m 9,7 km/h (2 Bft) 91,30 %
21.10.2023 22:10 14,1 C 13,3 C 9,4 C 78 % 998,5 hPa 0,0 l/m 0 min 0 min 0 W/m 12,9 km/h (3 Bft) 93,62 %
21.10.2023 22:12 14,1 C 13,3 C 9,4 C 78 % 998,5 hPa 0,0 l/m 0 min 0 min 0 W/m 6,4 km/h (2 Bft) 93,62 %
21.10.2023 22:14 14,1 C 13,3 C 9,4 C 78 % 998,5 hPa 0,0 l/m 0 min 0 min 0 W/m 16,1 km/h (3 Bft) 88,37 %
21.10.2023 22:16 14,1 C 13,3 C 9,4 C 78 % 998,5 hPa 0,0 l/m 0 min 0 min 0 W/m 19,3 km/h (3 Bft) 93,62 %
21.10.2023 22:18 14,0 C 13,3 C 9,4 C 78 % 998,5 hPa 0,0 l/m 0 min 0 min 0 W/m 6,4 km/h (2 Bft) 93,62 %
21.10.2023 22:20 14,0 C 12,8 C 9,4 C 78 % 998,5 hPa 0,0 l/m 0 min 0 min 0 W/m 6,4 km/h (2 Bft) 95,74 %
21.10.2023 22:22 14,0 C 12,8 C 9,4 C 78 % 998,5 hPa 0,0 l/m 0 min 0 min 0 W/m 6,4 km/h (2 Bft) 95,65 %
21.10.2023 22:24 13,9 C 12,8 C 9,4 C 78 % 998,5 hPa 0,0 l/m 0 min 0 min 0 W/m 19,3 km/h (3 Bft) 91,49 %
21.10.2023 22:26 13,9 C 12,8 C 9,4 C 78 % 998,5 hPa 0,0 l/m 0 min 0 min 0 W/m 12,9 km/h (3 Bft) 91,49 %
21.10.2023 22:28 13,9 C 12,8 C 9,4 C 78 % 998,4 hPa 0,0 l/m 0 min 0 min 0 W/m 12,9 km/h (3 Bft) 95,74 %
21.10.2023 22:30 13,9 C 12,8 C 9,4 C 78 % 998,4 hPa 0,0 l/m 0 min 0 min 0 W/m 6,4 km/h (2 Bft) 95,74 %
21.10.2023 22:32 13,8 C 12,8 C 9,4 C 78 % 998,4 hPa 0,0 l/m 0 min 0 min 0 W/m 12,9 km/h (3 Bft) 97,87 %
21.10.2023 22:34 13,8 C 12,8 C 8,9 C 78 % 998,4 hPa 0,0 l/m 0 min 0 min 0 W/m 16,1 km/h (3 Bft) 97,87 %
21.10.2023 22:36 13,7 C 12,8 C 8,9 C 79 % 998,4 hPa 0,0 l/m 0 min 0 min 0 W/m 16,1 km/h (3 Bft) 100,00 %
21.10.2023 22:38 13,7 C 12,8 C 8,9 C 79 % 998,5 hPa 0,0 l/m 0 min 0 min 0 W/m 6,4 km/h (2 Bft) 100,00 %
21.10.2023 22:40 13,7 C 12,8 C 8,9 C 79 % 998,5 hPa 0,0 l/m 0 min 0 min 0 W/m 12,9 km/h (3 Bft) 97,83 %
21.10.2023 22:42 13,6 C 12,2 C 8,9 C 79 % 998,5 hPa 0,0 l/m 0 min 0 min 0 W/m 12,9 km/h (3 Bft) 100,00 %
21.10.2023 22:44 13,6 C 12,2 C 8,9 C 79 % 998,5 hPa 0,0 l/m 0 min 0 min 0 W/m 16,1 km/h (3 Bft) 97,87 %
21.10.2023 22:46 13,6 C 12,2 C 8,9 C 79 % 998,6 hPa 0,0 l/m 0 min 0 min 0 W/m 6,4 km/h (2 Bft) 100,00 %
21.10.2023 22:48 13,5 C 12,2 C 8,9 C 80 % 998,6 hPa 0,0 l/m 0 min 0 min 0 W/m 6,4 km/h (2 Bft) 97,87 %
21.10.2023 22:50 13,4 C 12,2 C 8,9 C 80 % 998,5 hPa 0,0 l/m 0 min 0 min 0 W/m 12,9 km/h (3 Bft) 100,00 %
21.10.2023 22:52 13,4 C 12,2 C 8,9 C 80 % 998,5 hPa 0,0 l/m 0 min 0 min 0 W/m 12,9 km/h (3 Bft) 97,87 %
21.10.2023 22:54 13,3 C 12,2 C 8,9 C 80 % 998,5 hPa 0,0 l/m 0 min 0 min 0 W/m 6,4 km/h (2 Bft) 97,96 %
21.10.2023 22:56 13,3 C 12,2 C 8,9 C 80 % 998,5 hPa 0,0 l/m 0 min 0 min 0 W/m 6,4 km/h (2 Bft) 97,87 %
21.10.2023 22:58 13,3 C 12,2 C 8,9 C 80 % 998,4 hPa 0,0 l/m 0 min 0 min 0 W/m 19,3 km/h (3 Bft) 100,00 %
21.10.2023 23:00 13,2 C 12,2 C 8,9 C 80 % 998,5 hPa 0,0 l/m 0 min 0 min 0 W/m 9,7 km/h (2 Bft) 100,00 %
21.10.2023 23:02 13,2 C 12,2 C 8,9 C 80 % 998,5 hPa 0,0 l/m 0 min 0 min 0 W/m 6,4 km/h (2 Bft) 100,00 %
21.10.2023 23:04 13,2 C 12,2 C 8,9 C 80 % 998,6 hPa 0,0 l/m 0 min 0 min 0 W/m 16,1 km/h (3 Bft) 100,00 %
21.10.2023 23:06 13,2 C 12,2 C 8,9 C 81 % 998,5 hPa 0,0 l/m 0 min 0 min 0 W/m 12,9 km/h (3 Bft) 100,00 %
21.10.2023 23:08 13,2 C 12,2 C 8,9 C 81 % 998,5 hPa 0,0 l/m 0 min 0 min 0 W/m 9,7 km/h (2 Bft) 100,00 %
21.10.2023 23:10 13,2 C 12,2 C 8,9 C 81 % 998,5 hPa 0,0 l/m 0 min 0 min 0 W/m 16,1 km/h (3 Bft) 100,00 %
21.10.2023 23:12 13,2 C 12,2 C 8,9 C 81 % 998,6 hPa 0,0 l/m 0 min 0 min 0 W/m 6,4 km/h (2 Bft) 97,87 %
21.10.2023 23:14 13,2 C 12,2 C 8,9 C 81 % 998,6 hPa 0,0 l/m 0 min 0 min 0 W/m 16,1 km/h (3 Bft) 100,00 %
21.10.2023 23:16 13,2 C 12,2 C 8,9 C 80 % 998,6 hPa 0,0 l/m 0 min 0 min 0 W/m 6,4 km/h (2 Bft) 100,00 %
21.10.2023 23:18 13,2 C 12,2 C 8,9 C 80 % 998,5 hPa 0,0 l/m 0 min 0 min 0 W/m 9,7 km/h (2 Bft) 100,00 %
21.10.2023 23:20 13,2 C 12,2 C 8,9 C 80 % 998,6 hPa 0,0 l/m 0 min 0 min 0 W/m 19,3 km/h (3 Bft) 97,87 %
21.10.2023 23:22 13,2 C 12,2 C 8,9 C 80 % 998,5 hPa 0,0 l/m 0 min 0 min 0 W/m 16,1 km/h (3 Bft) 100,00 %
21.10.2023 23:24 13,2 C 12,8 C 8,9 C 80 % 998,6 hPa 0,0 l/m 0 min 0 min 0 W/m 16,1 km/h (3 Bft) 100,00 %
21.10.2023 23:26 13,2 C 12,8 C 8,9 C 80 % 998,5 hPa 0,0 l/m 0 min 0 min 0 W/m 12,9 km/h (3 Bft) 100,00 %
21.10.2023 23:28 13,2 C 12,8 C 8,9 C 80 % 998,4 hPa 0,0 l/m 0 min 0 min 0 W/m 12,9 km/h (3 Bft) 100,00 %
21.10.2023 23:30 13,2 C 12,8 C 8,9 C 80 % 998,5 hPa 0,0 l/m 0 min 0 min 0 W/m 19,3 km/h (3 Bft) 100,00 %
21.10.2023 23:32 13,2 C 12,8 C 8,9 C 80 % 998,4 hPa 0,0 l/m 0 min 0 min 0 W/m 22,5 km/h (4 Bft) 100,00 %
21.10.2023 23:34 13,3 C 12,8 C 8,9 C 80 % 998,5 hPa 0,0 l/m 0 min 0 min 0 W/m 12,9 km/h (3 Bft) 100,00 %
21.10.2023 23:36 13,3 C 12,8 C 8,9 C 80 % 998,5 hPa 0,0 l/m 0 min 0 min 0 W/m 9,7 km/h (2 Bft) 39,39 %
21.10.2023 23:38 13,3 C 12,8 C 8,9 C 79 % 998,5 hPa 0,0 l/m 0 min 0 min 0 W/m 19,3 km/h (3 Bft) 97,87 %
21.10.2023 23:40 13,4 C 12,8 C 8,9 C 79 % 998,5 hPa 0,0 l/m 0 min 0 min 0 W/m 9,7 km/h (2 Bft) 97,83 %
21.10.2023 23:42 13,4 C 12,8 C 8,9 C 79 % 998,6 hPa 0,0 l/m 0 min 0 min 0 W/m 16,1 km/h (3 Bft) 97,87 %
21.10.2023 23:44 13,4 C 12,8 C 8,9 C 79 % 998,6 hPa 0,0 l/m 0 min 0 min 0 W/m 12,9 km/h (3 Bft) 95,74 %
21.10.2023 23:46 13,4 C 12,8 C 8,9 C 79 % 998,5 hPa 0,0 l/m 0 min 0 min 0 W/m 16,1 km/h (3 Bft) 97,87 %
21.10.2023 23:48 13,4 C 12,8 C 8,9 C 79 % 998,6 hPa 0,0 l/m 0 min 0 min 0 W/m 16,1 km/h (3 Bft) 97,87 %
21.10.2023 23:50 13,5 C 12,8 C 8,9 C 79 % 998,6 hPa 0,0 l/m 0 min 0 min 0 W/m 12,9 km/h (3 Bft) 95,74 %
21.10.2023 23:52 13,5 C 12,8 C 9,4 C 79 % 998,6 hPa 0,0 l/m 0 min 0 min 0 W/m 19,3 km/h (3 Bft) 97,87 %
21.10.2023 23:54 13,6 C 13,3 C 9,4 C 79 % 998,6 hPa 0,0 l/m 0 min 0 min 0 W/m 19,3 km/h (3 Bft) 98,11 %
21.10.2023 23:56 13,6 C 13,3 C 9,4 C 79 % 998,6 hPa 0,0 l/m 0 min 0 min 0 W/m 12,9 km/h (3 Bft) 97,87 %
21.10.2023 23:58 13,7 C 13,3 C 9,4 C 78 % 998,6 hPa 0,0 l/m 0 min 0 min 0 W/m 25,7 km/h (4 Bft) 95,74 %
_ Min-Zeit 00:00 00:00 00:00 15:24 00:00 - - - - 03:00 23:36
Minimum _ 11,6 C 11,1 C 8,3 C 67 % 983,9 hPa - - - - 0,0 km/h (0 Bft) 39,39 %
_ Max-Zeit 15:16 11:40 11:42 08:40 22:46 03:22 14:10 03:02 14:52 15:42 00:00
Maximum _ 16,6 C 20,0 C 12,2 C 100 % 998,6 hPa 0,2 l/m 5 min 2 min 545 W/m 57,9 km/h
S (7 Bft)
100,00 %
Durchschnitt _ 13,9 C 13,4 C 10,0 C 86 % 992,7 hPa #2,6 l/m #2:56 h #2:28 h 148 W/m 14,7 km/h (3 Bft) 96,97 %
© 2023 W. Hausmann